<?xml version="1.0" encoding="utf-8"?>
<gpx xmlns:xsi="http://www.w3.org/2001/XMLSchema-instance" xmlns:xsd="http://www.w3.org/2001/XMLSchema" version="1.1" creator="Shapelink.com" xmlns="http://www.topografix.com/GPX/1/1" xmlns:gpxtpx="http://www.garmin.com/xmlschemas/TrackPointExtension/v1">
  <metadata>
    <name>Ejecutar 7.34 km, 2020-03-31</name>
    <desc></desc>
    <author><name>Per Rooth</name></author> 
    <time>2020-03-31T18:05:09Z</time>
  </metadata>
  <trk>
    <name>Ejecutar 7.34 km, 2020-03-31</name>
    <trkseg>
      <trkpt lat="56.891112845549" lon="14.824144521">
        <ele>172.6</ele>
        <time>2020-03-31T18:05:09Z</time>
      </trkpt>
      <trkpt lat="56.891102032898" lon="14.824156590936">
        <ele>174</ele>
        <time>2020-03-31T18:05:10Z</time>
      </trkpt>
      <trkpt lat="56.891073115343" lon="14.824180898446">
        <ele>173.6</ele>
        <time>2020-03-31T18:05:12Z</time>
      </trkpt>
      <trkpt lat="56.891058027923" lon="14.824202691386">
        <ele>173</ele>
        <time>2020-03-31T18:05:13Z</time>
      </trkpt>
      <trkpt lat="56.890948560309" lon="14.824483233579">
        <ele>172.6</ele>
        <time>2020-03-31T18:05:22Z</time>
      </trkpt>
      <trkpt lat="56.890841691084" lon="14.824720441349">
        <ele>171.8</ele>
        <time>2020-03-31T18:05:28Z</time>
      </trkpt>
      <trkpt lat="56.890803218163" lon="14.824855809034">
        <ele>170.6</ele>
        <time>2020-03-31T18:05:31Z</time>
      </trkpt>
      <trkpt lat="56.89071043053" lon="14.825149426991">
        <ele>170</ele>
        <time>2020-03-31T18:05:37Z</time>
      </trkpt>
      <trkpt lat="56.890675058912" lon="14.82523584438">
        <ele>169.6</ele>
        <time>2020-03-31T18:05:39Z</time>
      </trkpt>
      <trkpt lat="56.890656534913" lon="14.825274317301">
        <ele>169.4</ele>
        <time>2020-03-31T18:05:40Z</time>
      </trkpt>
      <trkpt lat="56.890539775046" lon="14.825554775675">
        <ele>168.6</ele>
        <time>2020-03-31T18:05:47Z</time>
      </trkpt>
      <trkpt lat="56.890456123684" lon="14.825893907349">
        <ele>168</ele>
        <time>2020-03-31T18:05:54Z</time>
      </trkpt>
      <trkpt lat="56.89040700575" lon="14.826085266126">
        <ele>167.4</ele>
        <time>2020-03-31T18:05:58Z</time>
      </trkpt>
      <trkpt lat="56.89035419978" lon="14.826407382543">
        <ele>167</ele>
        <time>2020-03-31T18:06:05Z</time>
      </trkpt>
      <trkpt lat="56.890336849247" lon="14.826770151175">
        <ele>166.6</ele>
        <time>2020-03-31T18:06:14Z</time>
      </trkpt>
      <trkpt lat="56.890332155383" lon="14.827031834093">
        <ele>166.2</ele>
        <time>2020-03-31T18:06:20Z</time>
      </trkpt>
      <trkpt lat="56.890328048252" lon="14.827067373349">
        <ele>166.4</ele>
        <time>2020-03-31T18:06:21Z</time>
      </trkpt>
      <trkpt lat="56.890306758226" lon="14.82736987612">
        <ele>166</ele>
        <time>2020-03-31T18:06:29Z</time>
      </trkpt>
      <trkpt lat="56.890314301936" lon="14.82771437221">
        <ele>166</ele>
        <time>2020-03-31T18:06:38Z</time>
      </trkpt>
      <trkpt lat="56.890270548418" lon="14.828071357331">
        <ele>166.2</ele>
        <time>2020-03-31T18:06:43Z</time>
      </trkpt>
      <trkpt lat="56.890214892602" lon="14.828237570408">
        <ele>166.2</ele>
        <time>2020-03-31T18:06:47Z</time>
      </trkpt>
      <trkpt lat="56.890100060572" lon="14.828423145674">
        <ele>166.6</ele>
        <time>2020-03-31T18:06:53Z</time>
      </trkpt>
      <trkpt lat="56.88999293989" lon="14.82872271478">
        <ele>166.4</ele>
        <time>2020-03-31T18:07:00Z</time>
      </trkpt>
      <trkpt lat="56.889928063984" lon="14.829027313026">
        <ele>166.4</ele>
        <time>2020-03-31T18:07:07Z</time>
      </trkpt>
      <trkpt lat="56.889908031243" lon="14.829360074456">
        <ele>166.8</ele>
        <time>2020-03-31T18:07:14Z</time>
      </trkpt>
      <trkpt lat="56.889894704022" lon="14.829387231812">
        <ele>166.8</ele>
        <time>2020-03-31T18:07:15Z</time>
      </trkpt>
      <trkpt lat="56.889808621909" lon="14.82943014714">
        <ele>166.8</ele>
        <time>2020-03-31T18:07:19Z</time>
      </trkpt>
      <trkpt lat="56.88961407801" lon="14.829454538469">
        <ele>166</ele>
        <time>2020-03-31T18:07:28Z</time>
      </trkpt>
      <trkpt lat="56.889483236551" lon="14.829461243989">
        <ele>166.4</ele>
        <time>2020-03-31T18:07:34Z</time>
      </trkpt>
      <trkpt lat="56.889274694879" lon="14.82952905356">
        <ele>165.6</ele>
        <time>2020-03-31T18:07:43Z</time>
      </trkpt>
      <trkpt lat="56.889218368511" lon="14.829560737142">
        <ele>165.8</ele>
        <time>2020-03-31T18:07:45Z</time>
      </trkpt>
      <trkpt lat="56.889031871236" lon="14.829674395706">
        <ele>165.6</ele>
        <time>2020-03-31T18:07:51Z</time>
      </trkpt>
      <trkpt lat="56.888943274553" lon="14.829702977985">
        <ele>165.6</ele>
        <time>2020-03-31T18:07:54Z</time>
      </trkpt>
      <trkpt lat="56.88874822774" lon="14.829757711792">
        <ele>165.2</ele>
        <time>2020-03-31T18:08:01Z</time>
      </trkpt>
      <trkpt lat="56.888612776236" lon="14.82982577282">
        <ele>164.8</ele>
        <time>2020-03-31T18:08:07Z</time>
      </trkpt>
      <trkpt lat="56.888531052711" lon="14.829978155762">
        <ele>164.8</ele>
        <time>2020-03-31T18:08:11Z</time>
      </trkpt>
      <trkpt lat="56.888456369982" lon="14.830295494496">
        <ele>165.2</ele>
        <time>2020-03-31T18:08:18Z</time>
      </trkpt>
      <trkpt lat="56.888449413005" lon="14.830598081086">
        <ele>165.4</ele>
        <time>2020-03-31T18:08:25Z</time>
      </trkpt>
      <trkpt lat="56.888642364343" lon="14.830640074405">
        <ele>165.6</ele>
        <time>2020-03-31T18:08:34Z</time>
      </trkpt>
      <trkpt lat="56.888683435653" lon="14.830674775471">
        <ele>165.8</ele>
        <time>2020-03-31T18:08:36Z</time>
      </trkpt>
      <trkpt lat="56.888771026508" lon="14.830766222">
        <ele>166.2</ele>
        <time>2020-03-31T18:08:40Z</time>
      </trkpt>
      <trkpt lat="56.888814528569" lon="14.830848867534">
        <ele>167</ele>
        <time>2020-03-31T18:08:43Z</time>
      </trkpt>
      <trkpt lat="56.888910082229" lon="14.830981217735">
        <ele>168</ele>
        <time>2020-03-31T18:08:48Z</time>
      </trkpt>
      <trkpt lat="56.889006641717" lon="14.831131840478">
        <ele>169.2</ele>
        <time>2020-03-31T18:08:54Z</time>
      </trkpt>
      <trkpt lat="56.889057855126" lon="14.831182634792">
        <ele>170.2</ele>
        <time>2020-03-31T18:08:57Z</time>
      </trkpt>
      <trkpt lat="56.889071014709" lon="14.831198644221">
        <ele>170.6</ele>
        <time>2020-03-31T18:08:58Z</time>
      </trkpt>
      <trkpt lat="56.889117785711" lon="14.83123309383">
        <ele>171.8</ele>
        <time>2020-03-31T18:09:01Z</time>
      </trkpt>
      <trkpt lat="56.889248459532" lon="14.831324205083">
        <ele>172.8</ele>
        <time>2020-03-31T18:09:08Z</time>
      </trkpt>
      <trkpt lat="56.889378127525" lon="14.831464182813">
        <ele>174</ele>
        <time>2020-03-31T18:09:16Z</time>
      </trkpt>
      <trkpt lat="56.88939447223" lon="14.831476420387">
        <ele>174.2</ele>
        <time>2020-03-31T18:09:17Z</time>
      </trkpt>
      <trkpt lat="56.889437890472" lon="14.831520844457">
        <ele>175.2</ele>
        <time>2020-03-31T18:09:20Z</time>
      </trkpt>
      <trkpt lat="56.889521541834" lon="14.831575494445">
        <ele>176.2</ele>
        <time>2020-03-31T18:09:25Z</time>
      </trkpt>
      <trkpt lat="56.889604187368" lon="14.83163626322">
        <ele>177.6</ele>
        <time>2020-03-31T18:09:29Z</time>
      </trkpt>
      <trkpt lat="56.889684318332" lon="14.831757046399">
        <ele>178.6</ele>
        <time>2020-03-31T18:09:33Z</time>
      </trkpt>
      <trkpt lat="56.889839383482" lon="14.831998445119">
        <ele>178</ele>
        <time>2020-03-31T18:09:40Z</time>
      </trkpt>
      <trkpt lat="56.889862601345" lon="14.832025015742">
        <ele>177.6</ele>
        <time>2020-03-31T18:09:41Z</time>
      </trkpt>
      <trkpt lat="56.889974080615" lon="14.83220874699">
        <ele>177.8</ele>
        <time>2020-03-31T18:09:46Z</time>
      </trkpt>
      <trkpt lat="56.890125206272" lon="14.832442602">
        <ele>177.4</ele>
        <time>2020-03-31T18:09:51Z</time>
      </trkpt>
      <trkpt lat="56.890146077203" lon="14.832483421853">
        <ele>177.4</ele>
        <time>2020-03-31T18:09:52Z</time>
      </trkpt>
      <trkpt lat="56.890277253938" lon="14.832766730073">
        <ele>177</ele>
        <time>2020-03-31T18:09:59Z</time>
      </trkpt>
      <trkpt lat="56.890321845646" lon="14.832860104439">
        <ele>177.2</ele>
        <time>2020-03-31T18:10:02Z</time>
      </trkpt>
      <trkpt lat="56.890456291322" lon="14.83308130278">
        <ele>177.4</ele>
        <time>2020-03-31T18:10:09Z</time>
      </trkpt>
      <trkpt lat="56.89055452719" lon="14.833253634644">
        <ele>178.8</ele>
        <time>2020-03-31T18:10:15Z</time>
      </trkpt>
      <trkpt lat="56.890626779168" lon="14.833342315146">
        <ele>180</ele>
        <time>2020-03-31T18:10:19Z</time>
      </trkpt>
      <trkpt lat="56.890681596794" lon="14.833383721732">
        <ele>181</ele>
        <time>2020-03-31T18:10:22Z</time>
      </trkpt>
      <trkpt lat="56.890750747469" lon="14.833459158832">
        <ele>182.2</ele>
        <time>2020-03-31T18:10:26Z</time>
      </trkpt>
      <trkpt lat="56.89087555396" lon="14.833604752435">
        <ele>183.2</ele>
        <time>2020-03-31T18:10:33Z</time>
      </trkpt>
      <trkpt lat="56.890899274737" lon="14.833622522063">
        <ele>183.6</ele>
        <time>2020-03-31T18:10:34Z</time>
      </trkpt>
      <trkpt lat="56.891075629913" lon="14.833783789819">
        <ele>184.8</ele>
        <time>2020-03-31T18:10:43Z</time>
      </trkpt>
      <trkpt lat="56.891156599067" lon="14.833868027914">
        <ele>185.4</ele>
        <time>2020-03-31T18:10:47Z</time>
      </trkpt>
      <trkpt lat="56.891182247681" lon="14.833938184417">
        <ele>186.2</ele>
        <time>2020-03-31T18:10:49Z</time>
      </trkpt>
      <trkpt lat="56.891263049197" lon="14.834249236726">
        <ele>187.2</ele>
        <time>2020-03-31T18:10:56Z</time>
      </trkpt>
      <trkpt lat="56.89136421873" lon="14.834468088135">
        <ele>187.8</ele>
        <time>2020-03-31T18:11:03Z</time>
      </trkpt>
      <trkpt lat="56.891382994186" lon="14.834488037057">
        <ele>188.2</ele>
        <time>2020-03-31T18:11:04Z</time>
      </trkpt>
      <trkpt lat="56.891449881748" lon="14.834526761435">
        <ele>189.2</ele>
        <time>2020-03-31T18:11:07Z</time>
      </trkpt>
      <trkpt lat="56.891537556422" lon="14.834583590717">
        <ele>190.4</ele>
        <time>2020-03-31T18:11:12Z</time>
      </trkpt>
      <trkpt lat="56.8916014265" lon="14.834627679511">
        <ele>191.2</ele>
        <time>2020-03-31T18:11:15Z</time>
      </trkpt>
      <trkpt lat="56.891660854171" lon="14.834674534332">
        <ele>191.4</ele>
        <time>2020-03-31T18:11:18Z</time>
      </trkpt>
      <trkpt lat="56.891835113872" lon="14.834784169584">
        <ele>191.4</ele>
        <time>2020-03-31T18:11:26Z</time>
      </trkpt>
      <trkpt lat="56.892011804324" lon="14.834969158117">
        <ele>190</ele>
        <time>2020-03-31T18:11:34Z</time>
      </trkpt>
      <trkpt lat="56.892189249147" lon="14.835118188299">
        <ele>190</ele>
        <time>2020-03-31T18:11:41Z</time>
      </trkpt>
      <trkpt lat="56.892368705626" lon="14.835213322864">
        <ele>189.6</ele>
        <time>2020-03-31T18:11:47Z</time>
      </trkpt>
      <trkpt lat="56.892452943721" lon="14.835230254302">
        <ele>189.2</ele>
        <time>2020-03-31T18:11:50Z</time>
      </trkpt>
      <trkpt lat="56.892538271463" lon="14.835236037813">
        <ele>187.8</ele>
        <time>2020-03-31T18:11:53Z</time>
      </trkpt>
      <trkpt lat="56.892584371913" lon="14.8352421566">
        <ele>186.6</ele>
        <time>2020-03-31T18:11:55Z</time>
      </trkpt>
      <trkpt lat="56.892631645829" lon="14.835235115804">
        <ele>185.4</ele>
        <time>2020-03-31T18:11:57Z</time>
      </trkpt>
      <trkpt lat="56.892686631093" lon="14.835213741959">
        <ele>184.2</ele>
        <time>2020-03-31T18:11:59Z</time>
      </trkpt>
      <trkpt lat="56.892743711832" lon="14.835194966503">
        <ele>182.8</ele>
        <time>2020-03-31T18:12:01Z</time>
      </trkpt>
      <trkpt lat="56.892796936897" lon="14.835174766124">
        <ele>181.2</ele>
        <time>2020-03-31T18:12:03Z</time>
      </trkpt>
      <trkpt lat="56.892944123061" lon="14.835102765603">
        <ele>180</ele>
        <time>2020-03-31T18:12:08Z</time>
      </trkpt>
      <trkpt lat="56.893000617067" lon="14.835074350962">
        <ele>178.8</ele>
        <time>2020-03-31T18:12:10Z</time>
      </trkpt>
      <trkpt lat="56.893068510457" lon="14.835005954658">
        <ele>177.6</ele>
        <time>2020-03-31T18:12:13Z</time>
      </trkpt>
      <trkpt lat="56.893251738791" lon="14.835059263542">
        <ele>178.4</ele>
        <time>2020-03-31T18:12:20Z</time>
      </trkpt>
      <trkpt lat="56.893280237251" lon="14.835090360391">
        <ele>178.8</ele>
        <time>2020-03-31T18:12:21Z</time>
      </trkpt>
      <trkpt lat="56.893459358454" lon="14.835276606209">
        <ele>178.4</ele>
        <time>2020-03-31T18:12:28Z</time>
      </trkpt>
      <trkpt lat="56.893620793848" lon="14.835451620281">
        <ele>177.6</ele>
        <time>2020-03-31T18:12:34Z</time>
      </trkpt>
      <trkpt lat="56.893795137368" lon="14.835596459513">
        <ele>177</ele>
        <time>2020-03-31T18:12:40Z</time>
      </trkpt>
      <trkpt lat="56.893973420381" lon="14.835738448899">
        <ele>176.8</ele>
        <time>2020-03-31T18:12:47Z</time>
      </trkpt>
      <trkpt lat="56.894137454164" lon="14.835899800474">
        <ele>177.2</ele>
        <time>2020-03-31T18:12:54Z</time>
      </trkpt>
      <trkpt lat="56.894154134145" lon="14.835917067188">
        <ele>177.4</ele>
        <time>2020-03-31T18:12:55Z</time>
      </trkpt>
      <trkpt lat="56.894331998063" lon="14.836188305472">
        <ele>178.2</ele>
        <time>2020-03-31T18:15:56Z</time>
      </trkpt>
      <trkpt lat="56.894423528411" lon="14.836154694053">
        <ele>178.6</ele>
        <time>2020-03-31T18:16:00Z</time>
      </trkpt>
      <trkpt lat="56.894481614978" lon="14.836162656858">
        <ele>178.8</ele>
        <time>2020-03-31T18:16:02Z</time>
      </trkpt>
      <trkpt lat="56.894611618247" lon="14.836361726983">
        <ele>178.6</ele>
        <time>2020-03-31T18:16:08Z</time>
      </trkpt>
      <trkpt lat="56.894625448382" lon="14.836508494052">
        <ele>178.4</ele>
        <time>2020-03-31T18:16:10Z</time>
      </trkpt>
      <trkpt lat="56.894603068709" lon="14.836803034018">
        <ele>179.8</ele>
        <time>2020-03-31T18:16:14Z</time>
      </trkpt>
      <trkpt lat="56.894581527226" lon="14.836969414733">
        <ele>180.4</ele>
        <time>2020-03-31T18:16:16Z</time>
      </trkpt>
      <trkpt lat="56.894537773708" lon="14.837136046905">
        <ele>180.8</ele>
        <time>2020-03-31T18:16:18Z</time>
      </trkpt>
      <trkpt lat="56.894492595267" lon="14.83735774816">
        <ele>180.8</ele>
        <time>2020-03-31T18:16:21Z</time>
      </trkpt>
      <trkpt lat="56.894460073495" lon="14.837678355835">
        <ele>180</ele>
        <time>2020-03-31T18:16:25Z</time>
      </trkpt>
      <trkpt lat="56.894458480934" lon="14.837762845387">
        <ele>179.6</ele>
        <time>2020-03-31T18:16:26Z</time>
      </trkpt>
      <trkpt lat="56.89446384535" lon="14.838137935412">
        <ele>179.4</ele>
        <time>2020-03-31T18:16:31Z</time>
      </trkpt>
      <trkpt lat="56.894527799247" lon="14.838523921907">
        <ele>179.2</ele>
        <time>2020-03-31T18:16:36Z</time>
      </trkpt>
      <trkpt lat="56.894579264113" lon="14.838754005062">
        <ele>178</ele>
        <time>2020-03-31T18:16:39Z</time>
      </trkpt>
      <trkpt lat="56.894642631277" lon="14.838890043299">
        <ele>177.2</ele>
        <time>2020-03-31T18:16:41Z</time>
      </trkpt>
      <trkpt lat="56.894680349827" lon="14.838943436002">
        <ele>176.6</ele>
        <time>2020-03-31T18:16:42Z</time>
      </trkpt>
      <trkpt lat="56.894745980104" lon="14.839057932756">
        <ele>175</ele>
        <time>2020-03-31T18:16:44Z</time>
      </trkpt>
      <trkpt lat="56.894773640374" lon="14.83911710897">
        <ele>174.6</ele>
        <time>2020-03-31T18:16:45Z</time>
      </trkpt>
      <trkpt lat="56.894802306472" lon="14.839178799754">
        <ele>174</ele>
        <time>2020-03-31T18:16:46Z</time>
      </trkpt>
      <trkpt lat="56.894858800478" lon="14.839295056707">
        <ele>173</ele>
        <time>2020-03-31T18:16:48Z</time>
      </trkpt>
      <trkpt lat="56.894945553143" lon="14.83951608741">
        <ele>172.6</ele>
        <time>2020-03-31T18:16:51Z</time>
      </trkpt>
      <trkpt lat="56.89504135826" lon="14.839788415341">
        <ele>173</ele>
        <time>2020-03-31T18:16:55Z</time>
      </trkpt>
      <trkpt lat="56.895073628575" lon="14.839947839079">
        <ele>171.8</ele>
        <time>2020-03-31T18:16:57Z</time>
      </trkpt>
      <trkpt lat="56.895118807016" lon="14.840125367721">
        <ele>170.8</ele>
        <time>2020-03-31T18:16:59Z</time>
      </trkpt>
      <trkpt lat="56.895153508082" lon="14.840292586626">
        <ele>169.6</ele>
        <time>2020-03-31T18:17:01Z</time>
      </trkpt>
      <trkpt lat="56.89517463047" lon="14.840629539006">
        <ele>169.6</ele>
        <time>2020-03-31T18:17:05Z</time>
      </trkpt>
      <trkpt lat="56.895185107845" lon="14.840777144265">
        <ele>169.6</ele>
        <time>2020-03-31T18:17:07Z</time>
      </trkpt>
      <trkpt lat="56.89520648169" lon="14.84092592299">
        <ele>169.6</ele>
        <time>2020-03-31T18:17:09Z</time>
      </trkpt>
      <trkpt lat="56.895249145561" lon="14.841144942037">
        <ele>168.6</ele>
        <time>2020-03-31T18:17:12Z</time>
      </trkpt>
      <trkpt lat="56.895270770863" lon="14.841297492617">
        <ele>168.4</ele>
        <time>2020-03-31T18:17:14Z</time>
      </trkpt>
      <trkpt lat="56.895295832744" lon="14.841431603017">
        <ele>168.6</ele>
        <time>2020-03-31T18:17:16Z</time>
      </trkpt>
      <trkpt lat="56.895358948451" lon="14.841719856558">
        <ele>168.8</ele>
        <time>2020-03-31T18:17:20Z</time>
      </trkpt>
      <trkpt lat="56.89539591263" lon="14.841893445707">
        <ele>169.2</ele>
        <time>2020-03-31T18:17:23Z</time>
      </trkpt>
      <trkpt lat="56.895412173516" lon="14.841960081812">
        <ele>169.2</ele>
        <time>2020-03-31T18:17:24Z</time>
      </trkpt>
      <trkpt lat="56.895446455487" lon="14.842083714837">
        <ele>169.6</ele>
        <time>2020-03-31T18:17:26Z</time>
      </trkpt>
      <trkpt lat="56.895506637529" lon="14.842432904791">
        <ele>169</ele>
        <time>2020-03-31T18:17:31Z</time>
      </trkpt>
      <trkpt lat="56.895521892587" lon="14.842644128671">
        <ele>168.6</ele>
        <time>2020-03-31T18:17:34Z</time>
      </trkpt>
      <trkpt lat="56.895523568967" lon="14.842969765486">
        <ele>169.8</ele>
        <time>2020-03-31T18:17:39Z</time>
      </trkpt>
      <trkpt lat="56.895537650559" lon="14.843181659918">
        <ele>171</ele>
        <time>2020-03-31T18:17:42Z</time>
      </trkpt>
      <trkpt lat="56.895605879225" lon="14.843507212914">
        <ele>171.2</ele>
        <time>2020-03-31T18:17:47Z</time>
      </trkpt>
      <trkpt lat="56.895730015164" lon="14.843805440916">
        <ele>171.2</ele>
        <time>2020-03-31T18:17:52Z</time>
      </trkpt>
      <trkpt lat="56.895843841366" lon="14.844063771074">
        <ele>170.8</ele>
        <time>2020-03-31T18:17:56Z</time>
      </trkpt>
      <trkpt lat="56.895898742811" lon="14.844176842905">
        <ele>169.8</ele>
        <time>2020-03-31T18:17:58Z</time>
      </trkpt>
      <trkpt lat="56.895956075007" lon="14.844267870339">
        <ele>168.6</ele>
        <time>2020-03-31T18:18:01Z</time>
      </trkpt>
      <trkpt lat="56.895972084436" lon="14.84428538851">
        <ele>168.6</ele>
        <time>2020-03-31T18:18:02Z</time>
      </trkpt>
      <trkpt lat="56.895995469937" lon="14.844299302464">
        <ele>168.6</ele>
        <time>2020-03-31T18:18:03Z</time>
      </trkpt>
      <trkpt lat="56.896048443545" lon="14.844342636887">
        <ele>168.6</ele>
        <time>2020-03-31T18:18:07Z</time>
      </trkpt>
      <trkpt lat="56.896066045535" lon="14.844389575527">
        <ele>168.6</ele>
        <time>2020-03-31T18:18:11Z</time>
      </trkpt>
      <trkpt lat="56.896081635869" lon="14.84440776425">
        <ele>168.6</ele>
        <time>2020-03-31T18:18:13Z</time>
      </trkpt>
      <trkpt lat="56.896108038854" lon="14.844438609642">
        <ele>168.6</ele>
        <time>2020-03-31T18:18:17Z</time>
      </trkpt>
      <trkpt lat="56.896155396589" lon="14.844501054797">
        <ele>168.8</ele>
        <time>2020-03-31T18:18:21Z</time>
      </trkpt>
      <trkpt lat="56.896182386307" lon="14.844529553257">
        <ele>168.8</ele>
        <time>2020-03-31T18:18:23Z</time>
      </trkpt>
      <trkpt lat="56.89623326444" lon="14.84457288768">
        <ele>168.8</ele>
        <time>2020-03-31T18:18:27Z</time>
      </trkpt>
      <trkpt lat="56.89627685032" lon="14.844620077777">
        <ele>168.6</ele>
        <time>2020-03-31T18:18:33Z</time>
      </trkpt>
      <trkpt lat="56.896284477849" lon="14.844634327007">
        <ele>168.6</ele>
        <time>2020-03-31T18:18:35Z</time>
      </trkpt>
      <trkpt lat="56.896291602464" lon="14.844645391115">
        <ele>168.4</ele>
        <time>2020-03-31T18:18:37Z</time>
      </trkpt>
      <trkpt lat="56.896318340725" lon="14.8446885579">
        <ele>168.6</ele>
        <time>2020-03-31T18:18:42Z</time>
      </trkpt>
      <trkpt lat="56.896320017105" lon="14.844696772162">
        <ele>168.6</ele>
        <time>2020-03-31T18:18:44Z</time>
      </trkpt>
      <trkpt lat="56.896209124568" lon="14.8446382665">
        <ele>168.6</ele>
        <time>2020-03-31T18:18:51Z</time>
      </trkpt>
      <trkpt lat="56.896175094054" lon="14.84461060623">
        <ele>168.6</ele>
        <time>2020-03-31T18:18:55Z</time>
      </trkpt>
      <trkpt lat="56.896167801801" lon="14.844616892655">
        <ele>168.8</ele>
        <time>2020-03-31T18:19:33Z</time>
      </trkpt>
      <trkpt lat="56.896233180621" lon="14.844669698625">
        <ele>168.8</ele>
        <time>2020-03-31T18:19:41Z</time>
      </trkpt>
      <trkpt lat="56.89624583729" lon="14.844662657829">
        <ele>168.6</ele>
        <time>2020-03-31T18:19:44Z</time>
      </trkpt>
      <trkpt lat="56.896194623881" lon="14.844636925396">
        <ele>168.8</ele>
        <time>2020-03-31T18:19:54Z</time>
      </trkpt>
      <trkpt lat="56.896014245393" lon="14.844334925539">
        <ele>168.2</ele>
        <time>2020-03-31T18:20:02Z</time>
      </trkpt>
      <trkpt lat="56.895938053922" lon="14.844207185383">
        <ele>167.8</ele>
        <time>2020-03-31T18:20:04Z</time>
      </trkpt>
      <trkpt lat="56.895821377874" lon="14.843911807227">
        <ele>168.6</ele>
        <time>2020-03-31T18:20:09Z</time>
      </trkpt>
      <trkpt lat="56.895756166692" lon="14.843721538097">
        <ele>169.6</ele>
        <time>2020-03-31T18:20:12Z</time>
      </trkpt>
      <trkpt lat="56.895725405119" lon="14.843662194245">
        <ele>170</ele>
        <time>2020-03-31T18:20:13Z</time>
      </trkpt>
      <trkpt lat="56.895652566408" lon="14.84347653516">
        <ele>170.4</ele>
        <time>2020-03-31T18:20:16Z</time>
      </trkpt>
      <trkpt lat="56.895634126228" lon="14.843403025897">
        <ele>170.8</ele>
        <time>2020-03-31T18:20:17Z</time>
      </trkpt>
      <trkpt lat="56.895590540348" lon="14.843167829783">
        <ele>170.8</ele>
        <time>2020-03-31T18:20:20Z</time>
      </trkpt>
      <trkpt lat="56.895561203698" lon="14.842835403629">
        <ele>170.2</ele>
        <time>2020-03-31T18:20:24Z</time>
      </trkpt>
      <trkpt lat="56.895555420187" lon="14.842746639308">
        <ele>170.2</ele>
        <time>2020-03-31T18:20:25Z</time>
      </trkpt>
      <trkpt lat="56.895538572568" lon="14.842578079299">
        <ele>169.8</ele>
        <time>2020-03-31T18:20:27Z</time>
      </trkpt>
      <trkpt lat="56.895513594506" lon="14.842476239214">
        <ele>169.4</ele>
        <time>2020-03-31T18:20:28Z</time>
      </trkpt>
      <trkpt lat="56.895445701116" lon="14.842266524076">
        <ele>169.2</ele>
        <time>2020-03-31T18:20:31Z</time>
      </trkpt>
      <trkpt lat="56.895398762476" lon="14.842138029549">
        <ele>169</ele>
        <time>2020-03-31T18:20:33Z</time>
      </trkpt>
      <trkpt lat="56.895307148309" lon="14.841841058832">
        <ele>168.8</ele>
        <time>2020-03-31T18:20:37Z</time>
      </trkpt>
      <trkpt lat="56.895258030375" lon="14.841594044239">
        <ele>168.4</ele>
        <time>2020-03-31T18:20:40Z</time>
      </trkpt>
      <trkpt lat="56.895247636819" lon="14.841518774777">
        <ele>168.2</ele>
        <time>2020-03-31T18:20:41Z</time>
      </trkpt>
      <trkpt lat="56.895217042884" lon="14.841298498445">
        <ele>168</ele>
        <time>2020-03-31T18:20:44Z</time>
      </trkpt>
      <trkpt lat="56.895146886381" lon="14.84091921747">
        <ele>168.4</ele>
        <time>2020-03-31T18:20:49Z</time>
      </trkpt>
      <trkpt lat="56.8951385883" lon="14.840840679067">
        <ele>169</ele>
        <time>2020-03-31T18:20:50Z</time>
      </trkpt>
      <trkpt lat="56.895130457857" lon="14.840769013822">
        <ele>169.4</ele>
        <time>2020-03-31T18:20:51Z</time>
      </trkpt>
      <trkpt lat="56.895114532247" lon="14.840513784967">
        <ele>170</ele>
        <time>2020-03-31T18:20:54Z</time>
      </trkpt>
      <trkpt lat="56.895105647433" lon="14.840167696316">
        <ele>169.2</ele>
        <time>2020-03-31T18:20:58Z</time>
      </trkpt>
      <trkpt lat="56.895072036014" lon="14.839895452204">
        <ele>169.8</ele>
        <time>2020-03-31T18:21:02Z</time>
      </trkpt>
      <trkpt lat="56.89505141654" lon="14.839787912427">
        <ele>170</ele>
        <time>2020-03-31T18:21:04Z</time>
      </trkpt>
      <trkpt lat="56.894941948926" lon="14.839596637469">
        <ele>170.2</ele>
        <time>2020-03-31T18:21:08Z</time>
      </trkpt>
      <trkpt lat="56.894912360819" lon="14.839554057417">
        <ele>170.6</ele>
        <time>2020-03-31T18:21:09Z</time>
      </trkpt>
      <trkpt lat="56.894890651698" lon="14.839519943084">
        <ele>171</ele>
        <time>2020-03-31T18:21:10Z</time>
      </trkpt>
      <trkpt lat="56.894868020568" lon="14.839440398853">
        <ele>171.8</ele>
        <time>2020-03-31T18:21:12Z</time>
      </trkpt>
      <trkpt lat="56.894831224027" lon="14.839329673954">
        <ele>172.6</ele>
        <time>2020-03-31T18:21:14Z</time>
      </trkpt>
      <trkpt lat="56.894724606259" lon="14.839098584971">
        <ele>173</ele>
        <time>2020-03-31T18:21:19Z</time>
      </trkpt>
      <trkpt lat="56.894616898844" lon="14.838867579807">
        <ele>174.2</ele>
        <time>2020-03-31T18:21:24Z</time>
      </trkpt>
      <trkpt lat="56.894593094248" lon="14.838759537116">
        <ele>175.6</ele>
        <time>2020-03-31T18:21:26Z</time>
      </trkpt>
      <trkpt lat="56.894567948548" lon="14.838612183314">
        <ele>176.8</ele>
        <time>2020-03-31T18:21:29Z</time>
      </trkpt>
      <trkpt lat="56.894507515049" lon="14.838302723566">
        <ele>177.6</ele>
        <time>2020-03-31T18:21:34Z</time>
      </trkpt>
      <trkpt lat="56.894494271647" lon="14.838163332569">
        <ele>177.8</ele>
        <time>2020-03-31T18:21:36Z</time>
      </trkpt>
      <trkpt lat="56.894507263592" lon="14.837792684951">
        <ele>178.4</ele>
        <time>2020-03-31T18:21:41Z</time>
      </trkpt>
      <trkpt lat="56.89457532462" lon="14.837490601275">
        <ele>178.8</ele>
        <time>2020-03-31T18:21:46Z</time>
      </trkpt>
      <trkpt lat="56.894642798915" lon="14.837361855291">
        <ele>179</ele>
        <time>2020-03-31T18:21:49Z</time>
      </trkpt>
      <trkpt lat="56.894713123056" lon="14.83703001587">
        <ele>180</ele>
        <time>2020-03-31T18:21:54Z</time>
      </trkpt>
      <trkpt lat="56.894693257953" lon="14.836864389526">
        <ele>180.2</ele>
        <time>2020-03-31T18:21:56Z</time>
      </trkpt>
      <trkpt lat="56.894668112253" lon="14.836514696658">
        <ele>179.8</ele>
        <time>2020-03-31T18:22:03Z</time>
      </trkpt>
      <trkpt lat="56.894678086714" lon="14.83640137337">
        <ele>179.2</ele>
        <time>2020-03-31T18:22:07Z</time>
      </trkpt>
      <trkpt lat="56.894674901592" lon="14.83636952215">
        <ele>179</ele>
        <time>2020-03-31T18:22:09Z</time>
      </trkpt>
      <trkpt lat="56.894664340398" lon="14.836361307888">
        <ele>177.8</ele>
        <time>2020-03-31T18:22:14Z</time>
      </trkpt>
      <trkpt lat="56.894666938787" lon="14.836367259037">
        <ele>178.8</ele>
        <time>2020-03-31T18:23:19Z</time>
      </trkpt>
      <trkpt lat="56.894661155276" lon="14.836358206585">
        <ele>179</ele>
        <time>2020-03-31T18:23:20Z</time>
      </trkpt>
      <trkpt lat="56.894644307657" lon="14.836337000378">
        <ele>179</ele>
        <time>2020-03-31T18:23:22Z</time>
      </trkpt>
      <trkpt lat="56.894603655442" lon="14.836292576308">
        <ele>178.6</ele>
        <time>2020-03-31T18:23:25Z</time>
      </trkpt>
      <trkpt lat="56.8945267096" lon="14.836239099786">
        <ele>179.2</ele>
        <time>2020-03-31T18:23:28Z</time>
      </trkpt>
      <trkpt lat="56.894450182853" lon="14.836192161146">
        <ele>180</ele>
        <time>2020-03-31T18:23:32Z</time>
      </trkpt>
      <trkpt lat="56.894344990008" lon="14.836142959393">
        <ele>180.2</ele>
        <time>2020-03-31T18:23:39Z</time>
      </trkpt>
      <trkpt lat="56.894328142389" lon="14.836114460933">
        <ele>180.4</ele>
        <time>2020-03-31T18:23:41Z</time>
      </trkpt>
      <trkpt lat="56.894321017774" lon="14.836102474816">
        <ele>180.4</ele>
        <time>2020-03-31T18:23:43Z</time>
      </trkpt>
      <trkpt lat="56.894246837959" lon="14.836135415683">
        <ele>180.6</ele>
        <time>2020-03-31T18:23:55Z</time>
      </trkpt>
      <trkpt lat="56.894186153003" lon="14.836010190097">
        <ele>180.6</ele>
        <time>2020-03-31T18:24:00Z</time>
      </trkpt>
      <trkpt lat="56.894032596595" lon="14.835792176878">
        <ele>180.6</ele>
        <time>2020-03-31T18:24:05Z</time>
      </trkpt>
      <trkpt lat="56.893953890554" lon="14.835675081735">
        <ele>179.6</ele>
        <time>2020-03-31T18:24:07Z</time>
      </trkpt>
      <trkpt lat="56.893879459282" lon="14.835557148402">
        <ele>179</ele>
        <time>2020-03-31T18:24:09Z</time>
      </trkpt>
      <trkpt lat="56.893701595364" lon="14.835364113245">
        <ele>178.8</ele>
        <time>2020-03-31T18:24:14Z</time>
      </trkpt>
      <trkpt lat="56.893533873545" lon="14.835197900168">
        <ele>179.2</ele>
        <time>2020-03-31T18:24:18Z</time>
      </trkpt>
      <trkpt lat="56.893493556606" lon="14.835153559917">
        <ele>179.4</ele>
        <time>2020-03-31T18:24:19Z</time>
      </trkpt>
      <trkpt lat="56.893330947746" lon="14.835015090929">
        <ele>179.4</ele>
        <time>2020-03-31T18:24:23Z</time>
      </trkpt>
      <trkpt lat="56.893274537559" lon="14.835007044305">
        <ele>179.6</ele>
        <time>2020-03-31T18:24:25Z</time>
      </trkpt>
      <trkpt lat="56.893224413797" lon="14.835051636013">
        <ele>180.4</ele>
        <time>2020-03-31T18:24:27Z</time>
      </trkpt>
      <trkpt lat="56.89304478968" lon="14.835210556837">
        <ele>181</ele>
        <time>2020-03-31T18:24:33Z</time>
      </trkpt>
      <trkpt lat="56.893009669519" lon="14.835242910971">
        <ele>181.4</ele>
        <time>2020-03-31T18:24:34Z</time>
      </trkpt>
      <trkpt lat="56.89293833955" lon="14.835294292018">
        <ele>182.6</ele>
        <time>2020-03-31T18:24:37Z</time>
      </trkpt>
      <trkpt lat="56.892872373997" lon="14.8353175937">
        <ele>183.6</ele>
        <time>2020-03-31T18:24:40Z</time>
      </trkpt>
      <trkpt lat="56.892831973239" lon="14.835323125754">
        <ele>184.8</ele>
        <time>2020-03-31T18:24:42Z</time>
      </trkpt>
      <trkpt lat="56.892787716807" lon="14.83531004999">
        <ele>186.2</ele>
        <time>2020-03-31T18:24:44Z</time>
      </trkpt>
      <trkpt lat="56.892740442891" lon="14.835319605356">
        <ele>187.4</ele>
        <time>2020-03-31T18:24:46Z</time>
      </trkpt>
      <trkpt lat="56.892684787075" lon="14.835307954515">
        <ele>188.8</ele>
        <time>2020-03-31T18:24:48Z</time>
      </trkpt>
      <trkpt lat="56.892626281413" lon="14.835300746081">
        <ele>190.2</ele>
        <time>2020-03-31T18:24:50Z</time>
      </trkpt>
      <trkpt lat="56.892570122683" lon="14.835275432743">
        <ele>191.2</ele>
        <time>2020-03-31T18:24:52Z</time>
      </trkpt>
      <trkpt lat="56.892416482456" lon="14.835196307607">
        <ele>192.2</ele>
        <time>2020-03-31T18:24:56Z</time>
      </trkpt>
      <trkpt lat="56.892227973525" lon="14.835107710924">
        <ele>193</ele>
        <time>2020-03-31T18:25:01Z</time>
      </trkpt>
      <trkpt lat="56.892042482078" lon="14.834971002135">
        <ele>192.4</ele>
        <time>2020-03-31T18:25:07Z</time>
      </trkpt>
      <trkpt lat="56.891852380586" lon="14.83480294504">
        <ele>193.4</ele>
        <time>2020-03-31T18:25:14Z</time>
      </trkpt>
      <trkpt lat="56.891710558838" lon="14.834677384178">
        <ele>194.4</ele>
        <time>2020-03-31T18:25:19Z</time>
      </trkpt>
      <trkpt lat="56.89153520949" lon="14.834571772238">
        <ele>193.8</ele>
        <time>2020-03-31T18:25:24Z</time>
      </trkpt>
      <trkpt lat="56.891496485112" lon="14.834547548547">
        <ele>193.4</ele>
        <time>2020-03-31T18:25:25Z</time>
      </trkpt>
      <trkpt lat="56.891390286439" lon="14.834446798109">
        <ele>191.8</ele>
        <time>2020-03-31T18:25:28Z</time>
      </trkpt>
      <trkpt lat="56.891347790206" lon="14.834357279417">
        <ele>190.8</ele>
        <time>2020-03-31T18:25:30Z</time>
      </trkpt>
      <trkpt lat="56.891222899896" lon="14.83410724734">
        <ele>190</ele>
        <time>2020-03-31T18:25:35Z</time>
      </trkpt>
      <trkpt lat="56.891119299612" lon="14.833966934334">
        <ele>189.6</ele>
        <time>2020-03-31T18:25:38Z</time>
      </trkpt>
      <trkpt lat="56.891029026549" lon="14.833855035969">
        <ele>188.4</ele>
        <time>2020-03-31T18:25:41Z</time>
      </trkpt>
      <trkpt lat="56.890952751259" lon="14.83379879342">
        <ele>187.2</ele>
        <time>2020-03-31T18:25:43Z</time>
      </trkpt>
      <trkpt lat="56.890753681134" lon="14.833639453501">
        <ele>186</ele>
        <time>2020-03-31T18:25:47Z</time>
      </trkpt>
      <trkpt lat="56.890552515534" lon="14.833405430853">
        <ele>185.2</ele>
        <time>2020-03-31T18:25:51Z</time>
      </trkpt>
      <trkpt lat="56.890505493075" lon="14.833335525807">
        <ele>184.8</ele>
        <time>2020-03-31T18:25:52Z</time>
      </trkpt>
      <trkpt lat="56.890410442329" lon="14.833197895009">
        <ele>183.8</ele>
        <time>2020-03-31T18:25:54Z</time>
      </trkpt>
      <trkpt lat="56.890319666352" lon="14.833056576175">
        <ele>182</ele>
        <time>2020-03-31T18:25:56Z</time>
      </trkpt>
      <trkpt lat="56.890255796274" lon="14.832957753574">
        <ele>180.8</ele>
        <time>2020-03-31T18:25:58Z</time>
      </trkpt>
      <trkpt lat="56.890172899283" lon="14.832844514105">
        <ele>180.4</ele>
        <time>2020-03-31T18:26:04Z</time>
      </trkpt>
      <trkpt lat="56.890197374431" lon="14.832855075299">
        <ele>180.4</ele>
        <time>2020-03-31T18:26:07Z</time>
      </trkpt>
      <trkpt lat="56.890210785471" lon="14.832870246538">
        <ele>180.4</ele>
        <time>2020-03-31T18:26:09Z</time>
      </trkpt>
      <trkpt lat="56.890217658629" lon="14.832847196313">
        <ele>180.2</ele>
        <time>2020-03-31T18:26:12Z</time>
      </trkpt>
      <trkpt lat="56.890218496819" lon="14.832793468334">
        <ele>179.8</ele>
        <time>2020-03-31T18:26:21Z</time>
      </trkpt>
      <trkpt lat="56.890235344438" lon="14.832846022847">
        <ele>180.8</ele>
        <time>2020-03-31T18:26:32Z</time>
      </trkpt>
      <trkpt lat="56.890253533161" lon="14.832896565704">
        <ele>180.4</ele>
        <time>2020-03-31T18:27:03Z</time>
      </trkpt>
      <trkpt lat="56.890199469906" lon="14.832845436114">
        <ele>180.6</ele>
        <time>2020-03-31T18:27:07Z</time>
      </trkpt>
      <trkpt lat="56.890132498525" lon="14.832759689277">
        <ele>180.6</ele>
        <time>2020-03-31T18:27:19Z</time>
      </trkpt>
      <trkpt lat="56.890116321458" lon="14.83270579366">
        <ele>180.4</ele>
        <time>2020-03-31T18:27:23Z</time>
      </trkpt>
      <trkpt lat="56.890107688101" lon="14.832719288519">
        <ele>180.4</ele>
        <time>2020-03-31T18:27:29Z</time>
      </trkpt>
      <trkpt lat="56.890116321458" lon="14.832734795034">
        <ele>180.4</ele>
        <time>2020-03-31T18:27:30Z</time>
      </trkpt>
      <trkpt lat="56.890131325059" lon="14.832758348173">
        <ele>180.4</ele>
        <time>2020-03-31T18:27:32Z</time>
      </trkpt>
      <trkpt lat="56.890171139084" lon="14.832772513584">
        <ele>180.4</ele>
        <time>2020-03-31T18:27:35Z</time>
      </trkpt>
      <trkpt lat="56.890192848205" lon="14.832788103918">
        <ele>180.6</ele>
        <time>2020-03-31T18:27:37Z</time>
      </trkpt>
      <trkpt lat="56.890203660856" lon="14.832821715337">
        <ele>180.6</ele>
        <time>2020-03-31T18:27:41Z</time>
      </trkpt>
      <trkpt lat="56.890193183481" lon="14.832813249618">
        <ele>180.8</ele>
        <time>2020-03-31T18:27:44Z</time>
      </trkpt>
      <trkpt lat="56.890191088006" lon="14.832783661511">
        <ele>180.6</ele>
        <time>2020-03-31T18:27:47Z</time>
      </trkpt>
      <trkpt lat="56.890211036928" lon="14.832756420336">
        <ele>180.6</ele>
        <time>2020-03-31T18:27:52Z</time>
      </trkpt>
      <trkpt lat="56.890222687769" lon="14.832770921023">
        <ele>180.8</ele>
        <time>2020-03-31T18:27:54Z</time>
      </trkpt>
      <trkpt lat="56.890317151782" lon="14.832940738317">
        <ele>180.8</ele>
        <time>2020-03-31T18:28:00Z</time>
      </trkpt>
      <trkpt lat="56.890370460666" lon="14.833055067433">
        <ele>180.6</ele>
        <time>2020-03-31T18:28:02Z</time>
      </trkpt>
      <trkpt lat="56.890437599685" lon="14.833283809484">
        <ele>181.2</ele>
        <time>2020-03-31T18:28:06Z</time>
      </trkpt>
      <trkpt lat="56.890477748986" lon="14.833365113914">
        <ele>181.8</ele>
        <time>2020-03-31T18:28:08Z</time>
      </trkpt>
      <trkpt lat="56.890498619917" lon="14.833390930166">
        <ele>182.6</ele>
        <time>2020-03-31T18:28:09Z</time>
      </trkpt>
      <trkpt lat="56.890524519988" lon="14.833423368119">
        <ele>183.6</ele>
        <time>2020-03-31T18:28:10Z</time>
      </trkpt>
      <trkpt lat="56.890584953487" lon="14.833499056676">
        <ele>184.6</ele>
        <time>2020-03-31T18:28:12Z</time>
      </trkpt>
      <trkpt lat="56.890698109137" lon="14.833611625593">
        <ele>186</ele>
        <time>2020-03-31T18:28:15Z</time>
      </trkpt>
      <trkpt lat="56.890828699139" lon="14.833720590293">
        <ele>187</ele>
        <time>2020-03-31T18:28:19Z</time>
      </trkpt>
      <trkpt lat="56.890951410155" lon="14.833850174467">
        <ele>188.2</ele>
        <time>2020-03-31T18:28:24Z</time>
      </trkpt>
      <trkpt lat="56.891018130079" lon="14.833977495528">
        <ele>189.4</ele>
        <time>2020-03-31T18:28:27Z</time>
      </trkpt>
      <trkpt lat="56.891131788643" lon="14.83428159086">
        <ele>190</ele>
        <time>2020-03-31T18:28:33Z</time>
      </trkpt>
      <trkpt lat="56.891169926288" lon="14.83435032244">
        <ele>190.4</ele>
        <time>2020-03-31T18:28:35Z</time>
      </trkpt>
      <trkpt lat="56.89124268118" lon="14.834399356555">
        <ele>191.8</ele>
        <time>2020-03-31T18:28:38Z</time>
      </trkpt>
      <trkpt lat="56.891334462985" lon="14.834470602705">
        <ele>193.2</ele>
        <time>2020-03-31T18:28:41Z</time>
      </trkpt>
      <trkpt lat="56.891413001388" lon="14.834534221326">
        <ele>194.4</ele>
        <time>2020-03-31T18:28:43Z</time>
      </trkpt>
      <trkpt lat="56.89159723555" lon="14.834654166315">
        <ele>195.2</ele>
        <time>2020-03-31T18:28:48Z</time>
      </trkpt>
      <trkpt lat="56.891800245168" lon="14.834805543429">
        <ele>193.2</ele>
        <time>2020-03-31T18:28:54Z</time>
      </trkpt>
      <trkpt lat="56.891984563149" lon="14.83498650865">
        <ele>193</ele>
        <time>2020-03-31T18:29:00Z</time>
      </trkpt>
      <trkpt lat="56.892153709891" lon="14.835100251033">
        <ele>193.2</ele>
        <time>2020-03-31T18:29:05Z</time>
      </trkpt>
      <trkpt lat="56.892353366749" lon="14.835170742812">
        <ele>192.4</ele>
        <time>2020-03-31T18:29:10Z</time>
      </trkpt>
      <trkpt lat="56.892393264593" lon="14.835172335373">
        <ele>192</ele>
        <time>2020-03-31T18:29:11Z</time>
      </trkpt>
      <trkpt lat="56.892480436353" lon="14.835164288749">
        <ele>190.8</ele>
        <time>2020-03-31T18:29:13Z</time>
      </trkpt>
      <trkpt lat="56.89260222536" lon="14.835145429474">
        <ele>189.2</ele>
        <time>2020-03-31T18:29:15Z</time>
      </trkpt>
      <trkpt lat="56.892654360778" lon="14.835119361765">
        <ele>188</ele>
        <time>2020-03-31T18:29:16Z</time>
      </trkpt>
      <trkpt lat="56.8927078373" lon="14.835094216065">
        <ele>186.8</ele>
        <time>2020-03-31T18:29:17Z</time>
      </trkpt>
      <trkpt lat="56.892763325478" lon="14.835069740917">
        <ele>185.8</ele>
        <time>2020-03-31T18:29:18Z</time>
      </trkpt>
      <trkpt lat="56.892815879991" lon="14.835041913009">
        <ele>185</ele>
        <time>2020-03-31T18:29:19Z</time>
      </trkpt>
      <trkpt lat="56.892862818631" lon="14.835006457572">
        <ele>184</ele>
        <time>2020-03-31T18:29:20Z</time>
      </trkpt>
      <trkpt lat="56.892965580725" lon="14.834940994933">
        <ele>182.2</ele>
        <time>2020-03-31T18:29:22Z</time>
      </trkpt>
      <trkpt lat="56.893056691978" lon="14.83489263137">
        <ele>181.4</ele>
        <time>2020-03-31T18:29:24Z</time>
      </trkpt>
      <trkpt lat="56.893084436067" lon="14.834857762666">
        <ele>181</ele>
        <time>2020-03-31T18:29:25Z</time>
      </trkpt>
      <trkpt lat="56.893124585368" lon="14.834861366883">
        <ele>180.8</ele>
        <time>2020-03-31T18:29:26Z</time>
      </trkpt>
      <trkpt lat="56.893289205884" lon="14.835034369299">
        <ele>180.8</ele>
        <time>2020-03-31T18:29:31Z</time>
      </trkpt>
      <trkpt lat="56.89345717916" lon="14.835234948166">
        <ele>181.4</ele>
        <time>2020-03-31T18:29:36Z</time>
      </trkpt>
      <trkpt lat="56.89362062621" lon="14.835370567308">
        <ele>181.4</ele>
        <time>2020-03-31T18:29:40Z</time>
      </trkpt>
      <trkpt lat="56.893735877335" lon="14.835448602797">
        <ele>181</ele>
        <time>2020-03-31T18:29:43Z</time>
      </trkpt>
      <trkpt lat="56.893786923106" lon="14.835514735988">
        <ele>181.4</ele>
        <time>2020-03-31T18:29:45Z</time>
      </trkpt>
      <trkpt lat="56.893944251369" lon="14.835764851884">
        <ele>180.8</ele>
        <time>2020-03-31T18:29:51Z</time>
      </trkpt>
      <trkpt lat="56.894318335566" lon="14.835840456622">
        <ele>181.4</ele>
        <time>2020-03-31T18:29:59Z</time>
      </trkpt>
      <trkpt lat="56.894465437911" lon="14.835883623407">
        <ele>181.8</ele>
        <time>2020-03-31T18:30:03Z</time>
      </trkpt>
      <trkpt lat="56.894508017963" lon="14.83596970552">
        <ele>182</ele>
        <time>2020-03-31T18:30:37Z</time>
      </trkpt>
      <trkpt lat="56.894446830093" lon="14.836098116228">
        <ele>182.6</ele>
        <time>2020-03-31T18:31:25Z</time>
      </trkpt>
      <trkpt lat="56.89442528861" lon="14.836115969675">
        <ele>182.6</ele>
        <time>2020-03-31T18:31:27Z</time>
      </trkpt>
      <trkpt lat="56.894388994983" lon="14.836145641601">
        <ele>182.2</ele>
        <time>2020-03-31T18:31:31Z</time>
      </trkpt>
      <trkpt lat="56.894378601427" lon="14.836160477564">
        <ele>182</ele>
        <time>2020-03-31T18:31:32Z</time>
      </trkpt>
      <trkpt lat="56.894359825971" lon="14.836177409002">
        <ele>182</ele>
        <time>2020-03-31T18:31:34Z</time>
      </trkpt>
      <trkpt lat="56.894334847909" lon="14.83620020777">
        <ele>182</ele>
        <time>2020-03-31T18:31:36Z</time>
      </trkpt>
      <trkpt lat="56.894279527369" lon="14.836188054015">
        <ele>182</ele>
        <time>2020-03-31T18:31:42Z</time>
      </trkpt>
      <trkpt lat="56.894241138267" lon="14.836121920824">
        <ele>182</ele>
        <time>2020-03-31T18:31:50Z</time>
      </trkpt>
      <trkpt lat="56.894100238528" lon="14.836145222506">
        <ele>182</ele>
        <time>2020-03-31T18:32:00Z</time>
      </trkpt>
      <trkpt lat="56.894023041229" lon="14.836171206396">
        <ele>182.2</ele>
        <time>2020-03-31T18:32:02Z</time>
      </trkpt>
      <trkpt lat="56.89394416755" lon="14.836246224401">
        <ele>182.2</ele>
        <time>2020-03-31T18:32:04Z</time>
      </trkpt>
      <trkpt lat="56.893790862599" lon="14.836467674199">
        <ele>182.4</ele>
        <time>2020-03-31T18:32:08Z</time>
      </trkpt>
      <trkpt lat="56.893698074966" lon="14.836616285286">
        <ele>182.4</ele>
        <time>2020-03-31T18:32:11Z</time>
      </trkpt>
      <trkpt lat="56.893624481884" lon="14.836700858657">
        <ele>181.8</ele>
        <time>2020-03-31T18:32:13Z</time>
      </trkpt>
      <trkpt lat="56.89346891382" lon="14.836903868275">
        <ele>181.4</ele>
        <time>2020-03-31T18:32:18Z</time>
      </trkpt>
      <trkpt lat="56.893399176412" lon="14.837076200139">
        <ele>182</ele>
        <time>2020-03-31T18:32:21Z</time>
      </trkpt>
      <trkpt lat="56.893245787642" lon="14.837302930534">
        <ele>182.8</ele>
        <time>2020-03-31T18:32:26Z</time>
      </trkpt>
      <trkpt lat="56.893082340592" lon="14.837515830794">
        <ele>182.8</ele>
        <time>2020-03-31T18:32:30Z</time>
      </trkpt>
      <trkpt lat="56.892987457484" lon="14.837690928685">
        <ele>182.8</ele>
        <time>2020-03-31T18:32:33Z</time>
      </trkpt>
      <trkpt lat="56.892865165563" lon="14.837960490589">
        <ele>182.4</ele>
        <time>2020-03-31T18:32:37Z</time>
      </trkpt>
      <trkpt lat="56.892722589444" lon="14.838200715843">
        <ele>181.6</ele>
        <time>2020-03-31T18:32:41Z</time>
      </trkpt>
      <trkpt lat="56.892653438769" lon="14.838321499022">
        <ele>181.4</ele>
        <time>2020-03-31T18:32:43Z</time>
      </trkpt>
      <trkpt lat="56.892575235642" lon="14.838427027143">
        <ele>181.4</ele>
        <time>2020-03-31T18:32:45Z</time>
      </trkpt>
      <trkpt lat="56.892417572103" lon="14.838588965451">
        <ele>182</ele>
        <time>2020-03-31T18:32:49Z</time>
      </trkpt>
      <trkpt lat="56.892227386792" lon="14.83879105306">
        <ele>182.2</ele>
        <time>2020-03-31T18:32:54Z</time>
      </trkpt>
      <trkpt lat="56.89203141797" lon="14.838961876182">
        <ele>182.4</ele>
        <time>2020-03-31T18:32:59Z</time>
      </trkpt>
      <trkpt lat="56.891848524912" lon="14.839032619418">
        <ele>182.4</ele>
        <time>2020-03-31T18:33:04Z</time>
      </trkpt>
      <trkpt lat="56.891647024036" lon="14.83907519947">
        <ele>182.4</ele>
        <time>2020-03-31T18:33:09Z</time>
      </trkpt>
      <trkpt lat="56.891455162345" lon="14.839173183881">
        <ele>182.4</ele>
        <time>2020-03-31T18:33:15Z</time>
      </trkpt>
      <trkpt lat="56.891266318138" lon="14.839335457465">
        <ele>183.4</ele>
        <time>2020-03-31T18:33:22Z</time>
      </trkpt>
      <trkpt lat="56.89119155159" lon="14.839404356683">
        <ele>184.6</ele>
        <time>2020-03-31T18:33:25Z</time>
      </trkpt>
      <trkpt lat="56.891070684592" lon="14.83950183818">
        <ele>186</ele>
        <time>2020-03-31T18:33:29Z</time>
      </trkpt>
      <trkpt lat="56.890880080186" lon="14.83966863799">
        <ele>186.6</ele>
        <time>2020-03-31T18:33:35Z</time>
      </trkpt>
      <trkpt lat="56.890700120793" lon="14.8397851464">
        <ele>187</ele>
        <time>2020-03-31T18:33:40Z</time>
      </trkpt>
      <trkpt lat="56.890665922641" lon="14.83979436649">
        <ele>187.4</ele>
        <time>2020-03-31T18:33:41Z</time>
      </trkpt>
      <trkpt lat="56.890478419538" lon="14.839901906267">
        <ele>187.6</ele>
        <time>2020-03-31T18:33:45Z</time>
      </trkpt>
      <trkpt lat="56.890277756852" lon="14.840059569806">
        <ele>187</ele>
        <time>2020-03-31T18:33:49Z</time>
      </trkpt>
      <trkpt lat="56.890104586798" lon="14.840197284423">
        <ele>186.8</ele>
        <time>2020-03-31T18:33:53Z</time>
      </trkpt>
      <trkpt lat="56.88999293989" lon="14.840241373217">
        <ele>186</ele>
        <time>2020-03-31T18:33:56Z</time>
      </trkpt>
      <trkpt lat="56.889819853655" lon="14.840355199419">
        <ele>185</ele>
        <time>2020-03-31T18:34:03Z</time>
      </trkpt>
      <trkpt lat="56.889772244463" lon="14.840387050639">
        <ele>184.8</ele>
        <time>2020-03-31T18:34:08Z</time>
      </trkpt>
      <trkpt lat="56.889766712409" lon="14.840388307924">
        <ele>184.6</ele>
        <time>2020-03-31T18:34:09Z</time>
      </trkpt>
      <trkpt lat="56.889775681042" lon="14.840428373406">
        <ele>184.2</ele>
        <time>2020-03-31T18:34:16Z</time>
      </trkpt>
      <trkpt lat="56.889806191158" lon="14.840434492193">
        <ele>184</ele>
        <time>2020-03-31T18:34:18Z</time>
      </trkpt>
      <trkpt lat="56.889772076825" lon="14.840455782219">
        <ele>184.4</ele>
        <time>2020-03-31T18:35:09Z</time>
      </trkpt>
      <trkpt lat="56.889749194238" lon="14.840476401693">
        <ele>184.6</ele>
        <time>2020-03-31T18:35:11Z</time>
      </trkpt>
      <trkpt lat="56.889716840104" lon="14.840514958433">
        <ele>185</ele>
        <time>2020-03-31T18:35:14Z</time>
      </trkpt>
      <trkpt lat="56.88970627891" lon="14.840525771084">
        <ele>185</ele>
        <time>2020-03-31T18:35:15Z</time>
      </trkpt>
      <trkpt lat="56.889682893409" lon="14.840532476604">
        <ele>185</ele>
        <time>2020-03-31T18:35:17Z</time>
      </trkpt>
      <trkpt lat="56.889665459057" lon="14.840545300911">
        <ele>184.8</ele>
        <time>2020-03-31T18:35:19Z</time>
      </trkpt>
      <trkpt lat="56.889639810443" lon="14.840546306739">
        <ele>185</ele>
        <time>2020-03-31T18:35:21Z</time>
      </trkpt>
      <trkpt lat="56.889620615892" lon="14.840555694467">
        <ele>185</ele>
        <time>2020-03-31T18:35:23Z</time>
      </trkpt>
      <trkpt lat="56.889586836835" lon="14.840570111335">
        <ele>185.2</ele>
        <time>2020-03-31T18:35:27Z</time>
      </trkpt>
      <trkpt lat="56.889580382772" lon="14.840587461868">
        <ele>185.2</ele>
        <time>2020-03-31T18:35:28Z</time>
      </trkpt>
      <trkpt lat="56.88954953738" lon="14.840610931188">
        <ele>185.4</ele>
        <time>2020-03-31T18:35:33Z</time>
      </trkpt>
      <trkpt lat="56.889552219588" lon="14.840603387478">
        <ele>185.4</ele>
        <time>2020-03-31T18:35:34Z</time>
      </trkpt>
      <trkpt lat="56.889566720275" lon="14.840581929814">
        <ele>185.4</ele>
        <time>2020-03-31T18:35:38Z</time>
      </trkpt>
      <trkpt lat="56.889575772727" lon="14.840566507118">
        <ele>185.4</ele>
        <time>2020-03-31T18:35:40Z</time>
      </trkpt>
      <trkpt lat="56.889587004473" lon="14.840531806052">
        <ele>185.4</ele>
        <time>2020-03-31T18:35:42Z</time>
      </trkpt>
      <trkpt lat="56.889607707766" lon="14.840504397239">
        <ele>185.2</ele>
        <time>2020-03-31T18:35:45Z</time>
      </trkpt>
      <trkpt lat="56.889621202625" lon="14.840478413349">
        <ele>185.2</ele>
        <time>2020-03-31T18:35:47Z</time>
      </trkpt>
      <trkpt lat="56.88963587095" lon="14.840458045332">
        <ele>185.2</ele>
        <time>2020-03-31T18:35:49Z</time>
      </trkpt>
      <trkpt lat="56.889688090187" lon="14.84039618691">
        <ele>184.6</ele>
        <time>2020-03-31T18:35:57Z</time>
      </trkpt>
      <trkpt lat="56.889762521459" lon="14.840295687929">
        <ele>184.6</ele>
        <time>2020-03-31T18:36:00Z</time>
      </trkpt>
      <trkpt lat="56.889839634939" lon="14.84024782728">
        <ele>184.8</ele>
        <time>2020-03-31T18:36:02Z</time>
      </trkpt>
      <trkpt lat="56.88995689772" lon="14.840177586958">
        <ele>185.6</ele>
        <time>2020-03-31T18:36:05Z</time>
      </trkpt>
      <trkpt lat="56.890029317336" lon="14.840118997477">
        <ele>186.6</ele>
        <time>2020-03-31T18:36:07Z</time>
      </trkpt>
      <trkpt lat="56.890211204566" lon="14.840025204016">
        <ele>187.2</ele>
        <time>2020-03-31T18:36:12Z</time>
      </trkpt>
      <trkpt lat="56.890413878908" lon="14.839917664239">
        <ele>186.8</ele>
        <time>2020-03-31T18:36:18Z</time>
      </trkpt>
      <trkpt lat="56.890590234084" lon="14.839846250451">
        <ele>187</ele>
        <time>2020-03-31T18:36:22Z</time>
      </trkpt>
      <trkpt lat="56.890753513496" lon="14.839715492811">
        <ele>186.6</ele>
        <time>2020-03-31T18:36:26Z</time>
      </trkpt>
      <trkpt lat="56.890921570591" lon="14.839585238085">
        <ele>186.6</ele>
        <time>2020-03-31T18:36:30Z</time>
      </trkpt>
      <trkpt lat="56.891097087577" lon="14.839423299777">
        <ele>187.2</ele>
        <time>2020-03-31T18:36:34Z</time>
      </trkpt>
      <trkpt lat="56.891188450287" lon="14.839338558768">
        <ele>187</ele>
        <time>2020-03-31T18:36:36Z</time>
      </trkpt>
      <trkpt lat="56.891310323113" lon="14.839156336262">
        <ele>185.4</ele>
        <time>2020-03-31T18:36:39Z</time>
      </trkpt>
      <trkpt lat="56.891353489898" lon="14.839107134509">
        <ele>184.8</ele>
        <time>2020-03-31T18:36:40Z</time>
      </trkpt>
      <trkpt lat="56.891426747704" lon="14.839029266658">
        <ele>184.2</ele>
        <time>2020-03-31T18:36:42Z</time>
      </trkpt>
      <trkpt lat="56.891458347467" lon="14.839008898641">
        <ele>184.2</ele>
        <time>2020-03-31T18:36:43Z</time>
      </trkpt>
      <trkpt lat="56.891669990442" lon="14.838979981086">
        <ele>183.6</ele>
        <time>2020-03-31T18:36:49Z</time>
      </trkpt>
      <trkpt lat="56.891769567414" lon="14.838942430174">
        <ele>183</ele>
        <time>2020-03-31T18:36:52Z</time>
      </trkpt>
      <trkpt lat="56.891953047205" lon="14.838864143228">
        <ele>182.8</ele>
        <time>2020-03-31T18:36:57Z</time>
      </trkpt>
      <trkpt lat="56.892130911123" lon="14.838658702859">
        <ele>183</ele>
        <time>2020-03-31T18:37:02Z</time>
      </trkpt>
      <trkpt lat="56.89229544782" lon="14.838489388479">
        <ele>182.8</ele>
        <time>2020-03-31T18:37:06Z</time>
      </trkpt>
      <trkpt lat="56.892484794941" lon="14.838264083007">
        <ele>182.4</ele>
        <time>2020-03-31T18:37:11Z</time>
      </trkpt>
      <trkpt lat="56.892594011098" lon="14.838087308736">
        <ele>181.8</ele>
        <time>2020-03-31T18:37:14Z</time>
      </trkpt>
      <trkpt lat="56.892665173429" lon="14.837999047329">
        <ele>181.8</ele>
        <time>2020-03-31T18:37:16Z</time>
      </trkpt>
      <trkpt lat="56.892744130927" lon="14.83791011537">
        <ele>182.2</ele>
        <time>2020-03-31T18:37:18Z</time>
      </trkpt>
      <trkpt lat="56.892856113111" lon="14.837762761568">
        <ele>182.4</ele>
        <time>2020-03-31T18:37:21Z</time>
      </trkpt>
      <trkpt lat="56.892910595461" lon="14.837649270642">
        <ele>182.6</ele>
        <time>2020-03-31T18:37:23Z</time>
      </trkpt>
      <trkpt lat="56.893083178782" lon="14.837426563559">
        <ele>182.8</ele>
        <time>2020-03-31T18:37:28Z</time>
      </trkpt>
      <trkpt lat="56.893148054688" lon="14.837332183365">
        <ele>182.8</ele>
        <time>2020-03-31T18:37:30Z</time>
      </trkpt>
      <trkpt lat="56.893296581956" lon="14.837089694998">
        <ele>182.6</ele>
        <time>2020-03-31T18:37:34Z</time>
      </trkpt>
      <trkpt lat="56.893395739833" lon="14.836942425015">
        <ele>182.4</ele>
        <time>2020-03-31T18:37:37Z</time>
      </trkpt>
      <trkpt lat="56.893504201619" lon="14.836833627953">
        <ele>182.4</ele>
        <time>2020-03-31T18:37:40Z</time>
      </trkpt>
      <trkpt lat="56.893539237961" lon="14.836793730109">
        <ele>182.6</ele>
        <time>2020-03-31T18:37:41Z</time>
      </trkpt>
      <trkpt lat="56.893617441088" lon="14.836709156738">
        <ele>182.6</ele>
        <time>2020-03-31T18:37:43Z</time>
      </trkpt>
      <trkpt lat="56.893729926186" lon="14.836567921723">
        <ele>182.6</ele>
        <time>2020-03-31T18:37:46Z</time>
      </trkpt>
      <trkpt lat="56.893803686906" lon="14.83646842857">
        <ele>182.6</ele>
        <time>2020-03-31T18:37:48Z</time>
      </trkpt>
      <trkpt lat="56.893946095387" lon="14.83628486496">
        <ele>181.6</ele>
        <time>2020-03-31T18:37:52Z</time>
      </trkpt>
      <trkpt lat="56.894040727038" lon="14.836135499502">
        <ele>181.6</ele>
        <time>2020-03-31T18:37:56Z</time>
      </trkpt>
      <trkpt lat="56.894152290127" lon="14.836060397678">
        <ele>182.8</ele>
        <time>2020-03-31T18:38:01Z</time>
      </trkpt>
      <trkpt lat="56.894160001475" lon="14.836059978583">
        <ele>182.8</ele>
        <time>2020-03-31T18:38:02Z</time>
      </trkpt>
      <trkpt lat="56.894228816874" lon="14.836018655816">
        <ele>183</ele>
        <time>2020-03-31T18:38:08Z</time>
      </trkpt>
      <trkpt lat="56.894240300077" lon="14.835991163184">
        <ele>183.2</ele>
        <time>2020-03-31T18:38:10Z</time>
      </trkpt>
      <trkpt lat="56.894235941489" lon="14.835967442407">
        <ele>183.2</ele>
        <time>2020-03-31T18:38:12Z</time>
      </trkpt>
      <trkpt lat="56.894235103299" lon="14.835967274769">
        <ele>182.8</ele>
        <time>2020-03-31T18:38:16Z</time>
      </trkpt>
      <trkpt lat="56.89423082853" lon="14.835971800995">
        <ele>181.8</ele>
        <time>2020-03-31T18:38:49Z</time>
      </trkpt>
      <trkpt lat="56.894213477997" lon="14.83604765719">
        <ele>183</ele>
        <time>2020-03-31T18:39:19Z</time>
      </trkpt>
      <trkpt lat="56.894219177689" lon="14.836095098744">
        <ele>184</ele>
        <time>2020-03-31T18:39:31Z</time>
      </trkpt>
      <trkpt lat="56.894379691074" lon="14.836081855342">
        <ele>183</ele>
        <time>2020-03-31T18:40:00Z</time>
      </trkpt>
      <trkpt lat="56.894558979915" lon="14.835992420469">
        <ele>183.4</ele>
        <time>2020-03-31T18:40:05Z</time>
      </trkpt>
      <trkpt lat="56.894744052267" lon="14.835866189055">
        <ele>183.6</ele>
        <time>2020-03-31T18:40:09Z</time>
      </trkpt>
      <trkpt lat="56.894930800999" lon="14.835703915471">
        <ele>183.4</ele>
        <time>2020-03-31T18:40:13Z</time>
      </trkpt>
      <trkpt lat="56.895049153427" lon="14.835592268563">
        <ele>183.2</ele>
        <time>2020-03-31T18:40:16Z</time>
      </trkpt>
      <trkpt lat="56.895127440373" lon="14.83555144871">
        <ele>182.8</ele>
        <time>2020-03-31T18:40:18Z</time>
      </trkpt>
      <trkpt lat="56.895336484959" lon="14.835482884768">
        <ele>183.8</ele>
        <time>2020-03-31T18:40:24Z</time>
      </trkpt>
      <trkpt lat="56.895359702822" lon="14.835471150108">
        <ele>184.2</ele>
        <time>2020-03-31T18:40:25Z</time>
      </trkpt>
      <trkpt lat="56.895521305854" lon="14.8354265584">
        <ele>185.2</ele>
        <time>2020-03-31T18:40:31Z</time>
      </trkpt>
      <trkpt lat="56.895684669085" lon="14.83528825705">
        <ele>185.6</ele>
        <time>2020-03-31T18:40:36Z</time>
      </trkpt>
      <trkpt lat="56.895896898793" lon="14.835150542433">
        <ele>184.2</ele>
        <time>2020-03-31T18:40:41Z</time>
      </trkpt>
      <trkpt lat="56.895946184365" lon="14.835130844968">
        <ele>184</ele>
        <time>2020-03-31T18:40:42Z</time>
      </trkpt>
      <trkpt lat="56.896041402749" lon="14.835095221893">
        <ele>183.6</ele>
        <time>2020-03-31T18:40:44Z</time>
      </trkpt>
      <trkpt lat="56.896291686283" lon="14.835070662926">
        <ele>183.8</ele>
        <time>2020-03-31T18:40:49Z</time>
      </trkpt>
      <trkpt lat="56.896482542146" lon="14.835074853876">
        <ele>184</ele>
        <time>2020-03-31T18:40:52Z</time>
      </trkpt>
      <trkpt lat="56.896680187348" lon="14.835089103106">
        <ele>184</ele>
        <time>2020-03-31T18:40:56Z</time>
      </trkpt>
      <trkpt lat="56.896799545604" lon="14.835092539685">
        <ele>183.6</ele>
        <time>2020-03-31T18:40:59Z</time>
      </trkpt>
      <trkpt lat="56.896972045106" lon="14.83523126013">
        <ele>184.4</ele>
        <time>2020-03-31T18:41:04Z</time>
      </trkpt>
      <trkpt lat="56.897100623452" lon="14.835356737173">
        <ele>185</ele>
        <time>2020-03-31T18:41:09Z</time>
      </trkpt>
      <trkpt lat="56.89730698583" lon="14.835463522579">
        <ele>185.2</ele>
        <time>2020-03-31T18:41:14Z</time>
      </trkpt>
      <trkpt lat="56.89740253949" lon="14.835472323574">
        <ele>186.2</ele>
        <time>2020-03-31T18:41:17Z</time>
      </trkpt>
      <trkpt lat="56.897609320963" lon="14.835518004929">
        <ele>186.6</ele>
        <time>2020-03-31T18:41:21Z</time>
      </trkpt>
      <trkpt lat="56.897775450221" lon="14.835486321347">
        <ele>186.6</ele>
        <time>2020-03-31T18:41:24Z</time>
      </trkpt>
      <trkpt lat="56.897973849794" lon="14.835339889554">
        <ele>185.4</ele>
        <time>2020-03-31T18:41:28Z</time>
      </trkpt>
      <trkpt lat="56.898009640507" lon="14.835298147692">
        <ele>185</ele>
        <time>2020-03-31T18:41:29Z</time>
      </trkpt>
      <trkpt lat="56.898101254674" lon="14.835210640656">
        <ele>183.8</ele>
        <time>2020-03-31T18:41:31Z</time>
      </trkpt>
      <trkpt lat="56.898187755882" lon="14.835095221893">
        <ele>183.4</ele>
        <time>2020-03-31T18:41:33Z</time>
      </trkpt>
      <trkpt lat="56.898303258464" lon="14.834959435113">
        <ele>182.6</ele>
        <time>2020-03-31T18:41:36Z</time>
      </trkpt>
      <trkpt lat="56.898406942567" lon="14.834833622794">
        <ele>181.6</ele>
        <time>2020-03-31T18:41:40Z</time>
      </trkpt>
      <trkpt lat="56.898599726267" lon="14.834815266433">
        <ele>181</ele>
        <time>2020-03-31T18:41:46Z</time>
      </trkpt>
      <trkpt lat="56.89871011589" lon="14.834871006068">
        <ele>180.6</ele>
        <time>2020-03-31T18:41:48Z</time>
      </trkpt>
      <trkpt lat="56.898767448086" lon="14.834925404599">
        <ele>180.4</ele>
        <time>2020-03-31T18:41:49Z</time>
      </trkpt>
      <trkpt lat="56.898813045622" lon="14.834984664632">
        <ele>180.2</ele>
        <time>2020-03-31T18:41:50Z</time>
      </trkpt>
      <trkpt lat="56.898955035008" lon="14.835251795785">
        <ele>179.8</ele>
        <time>2020-03-31T18:41:54Z</time>
      </trkpt>
      <trkpt lat="56.898988897884" lon="14.835307116325">
        <ele>179.6</ele>
        <time>2020-03-31T18:41:55Z</time>
      </trkpt>
      <trkpt lat="56.899064837898" lon="14.835403172899">
        <ele>178.8</ele>
        <time>2020-03-31T18:41:57Z</time>
      </trkpt>
      <trkpt lat="56.899157290255" lon="14.8354852317">
        <ele>178.2</ele>
        <time>2020-03-31T18:42:00Z</time>
      </trkpt>
      <trkpt lat="56.899206408189" lon="14.835514065436">
        <ele>178.4</ele>
        <time>2020-03-31T18:42:02Z</time>
      </trkpt>
      <trkpt lat="56.899268601887" lon="14.835463187303">
        <ele>178.4</ele>
        <time>2020-03-31T18:42:11Z</time>
      </trkpt>
      <trkpt lat="56.899303302953" lon="14.835557399859">
        <ele>178.6</ele>
        <time>2020-03-31T18:42:14Z</time>
      </trkpt>
      <trkpt lat="56.899307242446" lon="14.835597632979">
        <ele>178.6</ele>
        <time>2020-03-31T18:42:16Z</time>
      </trkpt>
      <trkpt lat="56.899308164455" lon="14.8356193421">
        <ele>178</ele>
        <time>2020-03-31T18:42:18Z</time>
      </trkpt>
      <trkpt lat="56.899316881631" lon="14.835674159726">
        <ele>178.4</ele>
        <time>2020-03-31T18:42:30Z</time>
      </trkpt>
      <trkpt lat="56.899408076703" lon="14.835561339352">
        <ele>179.4</ele>
        <time>2020-03-31T18:42:45Z</time>
      </trkpt>
      <trkpt lat="56.89940748997" lon="14.835540719878">
        <ele>179.2</ele>
        <time>2020-03-31T18:42:47Z</time>
      </trkpt>
      <trkpt lat="56.899391731998" lon="14.835520770956">
        <ele>179</ele>
        <time>2020-03-31T18:42:49Z</time>
      </trkpt>
      <trkpt lat="56.899322078409" lon="14.835563853922">
        <ele>178.4</ele>
        <time>2020-03-31T18:42:53Z</time>
      </trkpt>
      <trkpt lat="56.8992960107" lon="14.835579276618">
        <ele>178.4</ele>
        <time>2020-03-31T18:42:55Z</time>
      </trkpt>
      <trkpt lat="56.899267260783" lon="14.835613726227">
        <ele>178.4</ele>
        <time>2020-03-31T18:42:59Z</time>
      </trkpt>
      <trkpt lat="56.899262734557" lon="14.835626634353">
        <ele>179.2</ele>
        <time>2020-03-31T18:43:01Z</time>
      </trkpt>
      <trkpt lat="56.899270445905" lon="14.83567047169">
        <ele>178.6</ele>
        <time>2020-03-31T18:43:07Z</time>
      </trkpt>
      <trkpt lat="56.899276397054" lon="14.835675919925">
        <ele>178.4</ele>
        <time>2020-03-31T18:43:08Z</time>
      </trkpt>
      <trkpt lat="56.899316294898" lon="14.835676506658">
        <ele>178.4</ele>
        <time>2020-03-31T18:43:12Z</time>
      </trkpt>
      <trkpt lat="56.899352085611" lon="14.835704334566">
        <ele>178.4</ele>
        <time>2020-03-31T18:43:16Z</time>
      </trkpt>
      <trkpt lat="56.89937899151" lon="14.835741634021">
        <ele>178.4</ele>
        <time>2020-03-31T18:43:19Z</time>
      </trkpt>
      <trkpt lat="56.899344206625" lon="14.835758816916">
        <ele>178.6</ele>
        <time>2020-03-31T18:43:23Z</time>
      </trkpt>
      <trkpt lat="56.899339261304" lon="14.835761163848">
        <ele>178.6</ele>
        <time>2020-03-31T18:43:24Z</time>
      </trkpt>
      <trkpt lat="56.89932786192" lon="14.835759152192">
        <ele>178.6</ele>
        <time>2020-03-31T18:43:26Z</time>
      </trkpt>
      <trkpt lat="56.899313864147" lon="14.835715817769">
        <ele>179</ele>
        <time>2020-03-31T18:43:31Z</time>
      </trkpt>
      <trkpt lat="56.899242198902" lon="14.835609032363">
        <ele>178.8</ele>
        <time>2020-03-31T18:43:55Z</time>
      </trkpt>
      <trkpt lat="56.899063915889" lon="14.835406693297">
        <ele>178.6</ele>
        <time>2020-03-31T18:44:03Z</time>
      </trkpt>
      <trkpt lat="56.898979510156" lon="14.835219776927">
        <ele>179.4</ele>
        <time>2020-03-31T18:44:06Z</time>
      </trkpt>
      <trkpt lat="56.898920333942" lon="14.835061526655">
        <ele>180</ele>
        <time>2020-03-31T18:44:09Z</time>
      </trkpt>
      <trkpt lat="56.898858391701" lon="14.834973768162">
        <ele>180.2</ele>
        <time>2020-03-31T18:44:11Z</time>
      </trkpt>
      <trkpt lat="56.898742721481" lon="14.83492029164">
        <ele>181</ele>
        <time>2020-03-31T18:44:15Z</time>
      </trkpt>
      <trkpt lat="56.89855169798" lon="14.83494208458">
        <ele>181.8</ele>
        <time>2020-03-31T18:44:21Z</time>
      </trkpt>
      <trkpt lat="56.898480954744" lon="14.83500913978">
        <ele>182.2</ele>
        <time>2020-03-31T18:44:23Z</time>
      </trkpt>
      <trkpt lat="56.898323458843" lon="14.835182728929">
        <ele>182</ele>
        <time>2020-03-31T18:44:27Z</time>
      </trkpt>
      <trkpt lat="56.898188845529" lon="14.835314743854">
        <ele>183.2</ele>
        <time>2020-03-31T18:44:31Z</time>
      </trkpt>
      <trkpt lat="56.898114246619" lon="14.835394623361">
        <ele>184.2</ele>
        <time>2020-03-31T18:44:33Z</time>
      </trkpt>
      <trkpt lat="56.897951302483" lon="14.835546084294">
        <ele>184.6</ele>
        <time>2020-03-31T18:44:37Z</time>
      </trkpt>
      <trkpt lat="56.89779900336" lon="14.835577013505">
        <ele>185.4</ele>
        <time>2020-03-31T18:44:41Z</time>
      </trkpt>
      <trkpt lat="56.897615691207" lon="14.835556980764">
        <ele>186.6</ele>
        <time>2020-03-31T18:44:46Z</time>
      </trkpt>
      <trkpt lat="56.897420812032" lon="14.835530661598">
        <ele>186</ele>
        <time>2020-03-31T18:44:51Z</time>
      </trkpt>
      <trkpt lat="56.897218472966" lon="14.835434353567">
        <ele>186</ele>
        <time>2020-03-31T18:44:55Z</time>
      </trkpt>
      <trkpt lat="56.897043626532" lon="14.835307367782">
        <ele>185.8</ele>
        <time>2020-03-31T18:44:59Z</time>
      </trkpt>
      <trkpt lat="56.896948324329" lon="14.835252717794">
        <ele>185.6</ele>
        <time>2020-03-31T18:45:01Z</time>
      </trkpt>
      <trkpt lat="56.896903229707" lon="14.835243749161">
        <ele>185.2</ele>
        <time>2020-03-31T18:45:02Z</time>
      </trkpt>
      <trkpt lat="56.896859643827" lon="14.835235115804">
        <ele>185.4</ele>
        <time>2020-03-31T18:45:03Z</time>
      </trkpt>
      <trkpt lat="56.896674906751" lon="14.835255986735">
        <ele>184.8</ele>
        <time>2020-03-31T18:45:08Z</time>
      </trkpt>
      <trkpt lat="56.896474327884" lon="14.835224722248">
        <ele>184.8</ele>
        <time>2020-03-31T18:45:14Z</time>
      </trkpt>
      <trkpt lat="56.89644784108" lon="14.835218771099">
        <ele>184.2</ele>
        <time>2020-03-31T18:45:15Z</time>
      </trkpt>
      <trkpt lat="56.896256482303" lon="14.835199660367">
        <ele>185</ele>
        <time>2020-03-31T18:45:20Z</time>
      </trkpt>
      <trkpt lat="56.896143829567" lon="14.835223297325">
        <ele>185.4</ele>
        <time>2020-03-31T18:45:24Z</time>
      </trkpt>
      <trkpt lat="56.89604299531" lon="14.835273253449">
        <ele>186.6</ele>
        <time>2020-03-31T18:45:27Z</time>
      </trkpt>
      <trkpt lat="56.895839398959" lon="14.835378362475">
        <ele>187</ele>
        <time>2020-03-31T18:45:32Z</time>
      </trkpt>
      <trkpt lat="56.895660529213" lon="14.835429659703">
        <ele>186.4</ele>
        <time>2020-03-31T18:45:36Z</time>
      </trkpt>
      <trkpt lat="56.895572686901" lon="14.835471485384">
        <ele>185.6</ele>
        <time>2020-03-31T18:45:38Z</time>
      </trkpt>
      <trkpt lat="56.895496579249" lon="14.835516747644">
        <ele>184.6</ele>
        <time>2020-03-31T18:45:40Z</time>
      </trkpt>
      <trkpt lat="56.895312848001" lon="14.835545162285">
        <ele>184.6</ele>
        <time>2020-03-31T18:45:45Z</time>
      </trkpt>
      <trkpt lat="56.895133056246" lon="14.835653204976">
        <ele>184.6</ele>
        <time>2020-03-31T18:45:49Z</time>
      </trkpt>
      <trkpt lat="56.894942368021" lon="14.835772814689">
        <ele>184.6</ele>
        <time>2020-03-31T18:45:54Z</time>
      </trkpt>
      <trkpt lat="56.894666352054" lon="14.835905332528">
        <ele>185.2</ele>
        <time>2020-03-31T18:46:04Z</time>
      </trkpt>
      <trkpt lat="56.894641122535" lon="14.835926622554">
        <ele>185</ele>
        <time>2020-03-31T18:46:09Z</time>
      </trkpt>
      <trkpt lat="56.894622598536" lon="14.835937519024">
        <ele>185</ele>
        <time>2020-03-31T18:46:11Z</time>
      </trkpt>
      <trkpt lat="56.894512376551" lon="14.836027624449">
        <ele>185.2</ele>
        <time>2020-03-31T18:47:20Z</time>
      </trkpt>
      <trkpt lat="56.894483710453" lon="14.836047908647">
        <ele>185.6</ele>
        <time>2020-03-31T18:47:22Z</time>
      </trkpt>
      <trkpt lat="56.894462839522" lon="14.836085124283">
        <ele>186</ele>
        <time>2020-03-31T18:47:24Z</time>
      </trkpt>
      <trkpt lat="56.894434676338" lon="14.836125776498">
        <ele>186.4</ele>
        <time>2020-03-31T18:47:27Z</time>
      </trkpt>
      <trkpt lat="56.894418415452" lon="14.836140863918">
        <ele>186.4</ele>
        <time>2020-03-31T18:47:29Z</time>
      </trkpt>
      <trkpt lat="56.894401064919" lon="14.836149748732">
        <ele>186.4</ele>
        <time>2020-03-31T18:47:31Z</time>
      </trkpt>
      <trkpt lat="56.89436326255" lon="14.836157208623">
        <ele>186.4</ele>
        <time>2020-03-31T18:47:35Z</time>
      </trkpt>
      <trkpt lat="56.89435823341" lon="14.836158465908">
        <ele>186.2</ele>
        <time>2020-03-31T18:47:36Z</time>
      </trkpt>
      <trkpt lat="56.894319006118" lon="14.836194424259">
        <ele>186</ele>
        <time>2020-03-31T18:47:41Z</time>
      </trkpt>
      <trkpt lat="56.894270474917" lon="14.836186880549">
        <ele>185.8</ele>
        <time>2020-03-31T18:47:47Z</time>
      </trkpt>
      <trkpt lat="56.894253962574" lon="14.836181599952">
        <ele>185.8</ele>
        <time>2020-03-31T18:47:50Z</time>
      </trkpt>
      <trkpt lat="56.89417131704" lon="14.836091997441">
        <ele>186</ele>
        <time>2020-03-31T18:48:23Z</time>
      </trkpt>
      <trkpt lat="56.89415287686" lon="14.836115131485">
        <ele>186.2</ele>
        <time>2020-03-31T18:48:41Z</time>
      </trkpt>
      <trkpt lat="56.894172071411" lon="14.836031312485">
        <ele>186.2</ele>
        <time>2020-03-31T18:48:45Z</time>
      </trkpt>
      <trkpt lat="56.89417718437" lon="14.836005663871">
        <ele>186.2</ele>
        <time>2020-03-31T18:48:47Z</time>
      </trkpt>
      <trkpt lat="56.894174250705" lon="14.836018739635">
        <ele>186.2</ele>
        <time>2020-03-31T18:48:50Z</time>
      </trkpt>
      <trkpt lat="56.894070063688" lon="14.835844479934">
        <ele>186.2</ele>
        <time>2020-03-31T18:49:15Z</time>
      </trkpt>
      <trkpt lat="56.894022203039" lon="14.835777927648">
        <ele>186.6</ele>
        <time>2020-03-31T18:49:20Z</time>
      </trkpt>
      <trkpt lat="56.894002337936" lon="14.83573920327">
        <ele>186.6</ele>
        <time>2020-03-31T18:49:22Z</time>
      </trkpt>
      <trkpt lat="56.893833777927" lon="14.835562931913">
        <ele>186.2</ele>
        <time>2020-03-31T18:49:32Z</time>
      </trkpt>
      <trkpt lat="56.893664798823" lon="14.835393114619">
        <ele>186.6</ele>
        <time>2020-03-31T18:49:41Z</time>
      </trkpt>
      <trkpt lat="56.893492634597" lon="14.835202426394">
        <ele>186.8</ele>
        <time>2020-03-31T18:49:49Z</time>
      </trkpt>
      <trkpt lat="56.893343939691" lon="14.83502171263">
        <ele>186.8</ele>
        <time>2020-03-31T18:49:58Z</time>
      </trkpt>
      <trkpt lat="56.893353075962" lon="14.83466464369">
        <ele>186.4</ele>
        <time>2020-03-31T18:50:06Z</time>
      </trkpt>
      <trkpt lat="56.893299934716" lon="14.834329451509">
        <ele>186.8</ele>
        <time>2020-03-31T18:50:14Z</time>
      </trkpt>
      <trkpt lat="56.893159118796" lon="14.834080676717">
        <ele>187.4</ele>
        <time>2020-03-31T18:50:22Z</time>
      </trkpt>
      <trkpt lat="56.893118047486" lon="14.833998198821">
        <ele>187.8</ele>
        <time>2020-03-31T18:50:24Z</time>
      </trkpt>
      <trkpt lat="56.892993492452" lon="14.83377029496">
        <ele>188</ele>
        <time>2020-03-31T18:50:31Z</time>
      </trkpt>
      <trkpt lat="56.892824094253" lon="14.833632245067">
        <ele>187.8</ele>
        <time>2020-03-31T18:50:37Z</time>
      </trkpt>
      <trkpt lat="56.892711860612" lon="14.833570386645">
        <ele>188.8</ele>
        <time>2020-03-31T18:50:43Z</time>
      </trkpt>
      <trkpt lat="56.892523100224" lon="14.833510036965">
        <ele>189.4</ele>
        <time>2020-03-31T18:50:52Z</time>
      </trkpt>
      <trkpt lat="56.89248068781" lon="14.833510958974">
        <ele>189.4</ele>
        <time>2020-03-31T18:50:54Z</time>
      </trkpt>
      <trkpt lat="56.892418075017" lon="14.833532332819">
        <ele>189.8</ele>
        <time>2020-03-31T18:50:57Z</time>
      </trkpt>
      <trkpt lat="56.892366358694" lon="14.833562088564">
        <ele>191</ele>
        <time>2020-03-31T18:51:00Z</time>
      </trkpt>
      <trkpt lat="56.892267200817" lon="14.8336328318">
        <ele>192.4</ele>
        <time>2020-03-31T18:51:05Z</time>
      </trkpt>
      <trkpt lat="56.892171898614" lon="14.833628054117">
        <ele>193.4</ele>
        <time>2020-03-31T18:51:09Z</time>
      </trkpt>
      <trkpt lat="56.891971655023" lon="14.833592263404">
        <ele>193</ele>
        <time>2020-03-31T18:51:17Z</time>
      </trkpt>
      <trkpt lat="56.891908036402" lon="14.833485980912">
        <ele>192.2</ele>
        <time>2020-03-31T18:51:22Z</time>
      </trkpt>
      <trkpt lat="56.891904935099" lon="14.833319600197">
        <ele>191.2</ele>
        <time>2020-03-31T18:51:28Z</time>
      </trkpt>
      <trkpt lat="56.891928488238" lon="14.833032101027">
        <ele>190.6</ele>
        <time>2020-03-31T18:51:37Z</time>
      </trkpt>
      <trkpt lat="56.891880962865" lon="14.832919448291">
        <ele>190.2</ele>
        <time>2020-03-31T18:51:40Z</time>
      </trkpt>
      <trkpt lat="56.891734279615" lon="14.832674529173">
        <ele>189.4</ele>
        <time>2020-03-31T18:51:48Z</time>
      </trkpt>
      <trkpt lat="56.891699662368" lon="14.832599008254">
        <ele>189</ele>
        <time>2020-03-31T18:51:50Z</time>
      </trkpt>
      <trkpt lat="56.89160058831" lon="14.832308575419">
        <ele>190</ele>
        <time>2020-03-31T18:51:59Z</time>
      </trkpt>
      <trkpt lat="56.891489444316" lon="14.83204781451">
        <ele>189.4</ele>
        <time>2020-03-31T18:52:06Z</time>
      </trkpt>
      <trkpt lat="56.891368242042" lon="14.831794513492">
        <ele>188.2</ele>
        <time>2020-03-31T18:52:14Z</time>
      </trkpt>
      <trkpt lat="56.891298420815" lon="14.831685045878">
        <ele>188</ele>
        <time>2020-03-31T18:52:18Z</time>
      </trkpt>
      <trkpt lat="56.891267910699" lon="14.831565519984">
        <ele>188.4</ele>
        <time>2020-03-31T18:52:21Z</time>
      </trkpt>
      <trkpt lat="56.891282411386" lon="14.831360163434">
        <ele>188.2</ele>
        <time>2020-03-31T18:52:26Z</time>
      </trkpt>
      <trkpt lat="56.891275202952" lon="14.831221275351">
        <ele>188.6</ele>
        <time>2020-03-31T18:52:29Z</time>
      </trkpt>
      <trkpt lat="56.891218625127" lon="14.830901924961">
        <ele>188.2</ele>
        <time>2020-03-31T18:52:36Z</time>
      </trkpt>
      <trkpt lat="56.891138661801" lon="14.830636134912">
        <ele>187</ele>
        <time>2020-03-31T18:52:45Z</time>
      </trkpt>
      <trkpt lat="56.891059871941" lon="14.830475286251">
        <ele>185.8</ele>
        <time>2020-03-31T18:52:50Z</time>
      </trkpt>
      <trkpt lat="56.8909476383" lon="14.830346791724">
        <ele>184.4</ele>
        <time>2020-03-31T18:52:55Z</time>
      </trkpt>
      <trkpt lat="56.890904136239" lon="14.830301361826">
        <ele>183</ele>
        <time>2020-03-31T18:52:57Z</time>
      </trkpt>
      <trkpt lat="56.890810845692" lon="14.830227349649">
        <ele>181.8</ele>
        <time>2020-03-31T18:53:01Z</time>
      </trkpt>
      <trkpt lat="56.890792740788" lon="14.830200862845">
        <ele>181.6</ele>
        <time>2020-03-31T18:53:02Z</time>
      </trkpt>
      <trkpt lat="56.890783855974" lon="14.830105979737">
        <ele>180.8</ele>
        <time>2020-03-31T18:53:05Z</time>
      </trkpt>
      <trkpt lat="56.890770612572" lon="14.830074631431">
        <ele>180.4</ele>
        <time>2020-03-31T18:53:06Z</time>
      </trkpt>
      <trkpt lat="56.890758039722" lon="14.830044875686">
        <ele>180.2</ele>
        <time>2020-03-31T18:53:07Z</time>
      </trkpt>
      <trkpt lat="56.890729289805" lon="14.829999781064">
        <ele>179.8</ele>
        <time>2020-03-31T18:53:09Z</time>
      </trkpt>
      <trkpt lat="56.890578164148" lon="14.829787383718">
        <ele>179.8</ele>
        <time>2020-03-31T18:53:16Z</time>
      </trkpt>
      <trkpt lat="56.89048076647" lon="14.829490664458">
        <ele>178.8</ele>
        <time>2020-03-31T18:53:25Z</time>
      </trkpt>
      <trkpt lat="56.890464337946" lon="14.829416065548">
        <ele>178</ele>
        <time>2020-03-31T18:53:27Z</time>
      </trkpt>
      <trkpt lat="56.890452770924" lon="14.829383795233">
        <ele>177.6</ele>
        <time>2020-03-31T18:53:28Z</time>
      </trkpt>
      <trkpt lat="56.890430810346" lon="14.829261419493">
        <ele>176.8</ele>
        <time>2020-03-31T18:53:31Z</time>
      </trkpt>
      <trkpt lat="56.890431816174" lon="14.829210625179">
        <ele>176.4</ele>
        <time>2020-03-31T18:53:32Z</time>
      </trkpt>
      <trkpt lat="56.890425194473" lon="14.829158657399">
        <ele>176.2</ele>
        <time>2020-03-31T18:53:33Z</time>
      </trkpt>
      <trkpt lat="56.890409771777" lon="14.828990181209">
        <ele>175.2</ele>
        <time>2020-03-31T18:53:37Z</time>
      </trkpt>
      <trkpt lat="56.890323689664" lon="14.828669657353">
        <ele>176</ele>
        <time>2020-03-31T18:53:47Z</time>
      </trkpt>
      <trkpt lat="56.890309524253" lon="14.828637135581">
        <ele>176.2</ele>
        <time>2020-03-31T18:53:48Z</time>
      </trkpt>
      <trkpt lat="56.890271638065" lon="14.828513251099">
        <ele>176.4</ele>
        <time>2020-03-31T18:53:51Z</time>
      </trkpt>
      <trkpt lat="56.890293682462" lon="14.828266068868">
        <ele>175.2</ele>
        <time>2020-03-31T18:53:56Z</time>
      </trkpt>
      <trkpt lat="56.890329305537" lon="14.827925931366">
        <ele>175</ele>
        <time>2020-03-31T18:54:02Z</time>
      </trkpt>
      <trkpt lat="56.890339196179" lon="14.827579758896">
        <ele>174.6</ele>
        <time>2020-03-31T18:54:09Z</time>
      </trkpt>
      <trkpt lat="56.890332239202" lon="14.82724917676">
        <ele>174</ele>
        <time>2020-03-31T18:54:16Z</time>
      </trkpt>
      <trkpt lat="56.890331484831" lon="14.826889090336">
        <ele>173.8</ele>
        <time>2020-03-31T18:54:23Z</time>
      </trkpt>
      <trkpt lat="56.890333747944" lon="14.826560436037">
        <ele>174</ele>
        <time>2020-03-31T18:54:30Z</time>
      </trkpt>
      <trkpt lat="56.890354367418" lon="14.826210491712">
        <ele>174.4</ele>
        <time>2020-03-31T18:54:37Z</time>
      </trkpt>
      <trkpt lat="56.8904028148" lon="14.825861385577">
        <ele>174.8</ele>
        <time>2020-03-31T18:54:44Z</time>
      </trkpt>
      <trkpt lat="56.890441622997" lon="14.825611688776">
        <ele>175.2</ele>
        <time>2020-03-31T18:54:50Z</time>
      </trkpt>
      <trkpt lat="56.890576068673" lon="14.825372050255">
        <ele>175.6</ele>
        <time>2020-03-31T18:54:58Z</time>
      </trkpt>
      <trkpt lat="56.890681177699" lon="14.825118162504">
        <ele>175</ele>
        <time>2020-03-31T18:55:05Z</time>
      </trkpt>
      <trkpt lat="56.890756866256" lon="14.824943567527">
        <ele>176.2</ele>
        <time>2020-03-31T18:55:10Z</time>
      </trkpt>
      <trkpt lat="56.890861891463" lon="14.824694792735">
        <ele>177.2</ele>
        <time>2020-03-31T18:55:18Z</time>
      </trkpt>
      <trkpt lat="56.890911093216" lon="14.824634945969">
        <ele>178.6</ele>
        <time>2020-03-31T18:55:21Z</time>
      </trkpt>
      <trkpt lat="56.890978064597" lon="14.82456613057">
        <ele>179.6</ele>
        <time>2020-03-31T18:55:25Z</time>
      </trkpt>
      <trkpt lat="56.891023578314" lon="14.824495974067">
        <ele>180.8</ele>
        <time>2020-03-31T18:55:28Z</time>
      </trkpt>
      <trkpt lat="56.891098177224" lon="14.824295730476">
        <ele>180.6</ele>
        <time>2020-03-31T18:55:35Z</time>
      </trkpt>
    </trkseg>
  </trk>
</gpx>